<?xml version="1.0" encoding="UTF-8" standalone="no" ?>
<gpx xmlns="http://www.topografix.com/GPX/1/1" xmlns:xsi="http://www.w3.org/2001/XMLSchema-instance" xsi:schemaLocation="http://www.topografix.com/GPX/1/1 http://www.topografix.com/GPX/1/1/gpx.xsd" version="1.1" creator="VisuGPX - https://www.visugpx.com">
  <metadata>
    <name>gadagne-activity-18975937917</name>
  </metadata>
  <trk>
    <name><![CDATA[Vedène Cyclisme]]></name>
    <trkseg>
      <trkpt lat="43.97883" lon="4.9188">
        <ele>38.799999237061</ele>
        <time>2025-04-21T10:05:26.000Z</time>
      </trkpt>
      <trkpt lat="43.97897" lon="4.91872">
        <ele>45.400001525879</ele>
        <time>2025-04-21T10:08:02.000Z</time>
      </trkpt>
      <trkpt lat="43.97898" lon="4.91866">
        <ele>45.200000762939</ele>
        <time>2025-04-21T10:08:04.000Z</time>
      </trkpt>
      <trkpt lat="43.979" lon="4.91854">
        <ele>45.799999237061</ele>
        <time>2025-04-21T10:08:07.000Z</time>
      </trkpt>
      <trkpt lat="43.97902" lon="4.9184">
        <ele>45.799999237061</ele>
        <time>2025-04-21T10:08:10.000Z</time>
      </trkpt>
      <trkpt lat="43.97902" lon="4.91818">
        <ele>46.400001525879</ele>
        <time>2025-04-21T10:08:15.000Z</time>
      </trkpt>
      <trkpt lat="43.97902" lon="4.91814">
        <ele>46.400001525879</ele>
        <time>2025-04-21T10:08:16.000Z</time>
      </trkpt>
      <trkpt lat="43.97902" lon="4.91783">
        <ele>47</ele>
        <time>2025-04-21T10:08:25.000Z</time>
      </trkpt>
      <trkpt lat="43.97903" lon="4.91774">
        <ele>47.400001525879</ele>
        <time>2025-04-21T10:08:28.000Z</time>
      </trkpt>
      <trkpt lat="43.97905" lon="4.91758">
        <ele>48</ele>
        <time>2025-04-21T10:08:33.000Z</time>
      </trkpt>
      <trkpt lat="43.97904" lon="4.91723">
        <ele>48.200000762939</ele>
        <time>2025-04-21T10:08:41.000Z</time>
      </trkpt>
      <trkpt lat="43.97905" lon="4.91713">
        <ele>48.599998474121</ele>
        <time>2025-04-21T10:08:43.000Z</time>
      </trkpt>
      <trkpt lat="43.97905" lon="4.91692">
        <ele>48.799999237061</ele>
        <time>2025-04-21T10:08:47.000Z</time>
      </trkpt>
      <trkpt lat="43.97906" lon="4.91657">
        <ele>49.200000762939</ele>
        <time>2025-04-21T10:08:53.000Z</time>
      </trkpt>
      <trkpt lat="43.97905" lon="4.91646">
        <ele>49.599998474121</ele>
        <time>2025-04-21T10:08:55.000Z</time>
      </trkpt>
      <trkpt lat="43.97905" lon="4.91634">
        <ele>49.799999237061</ele>
        <time>2025-04-21T10:08:57.000Z</time>
      </trkpt>
      <trkpt lat="43.97906" lon="4.91611">
        <ele>50</ele>
        <time>2025-04-21T10:09:01.000Z</time>
      </trkpt>
      <trkpt lat="43.97905" lon="4.91605">
        <ele>50</ele>
        <time>2025-04-21T10:09:02.000Z</time>
      </trkpt>
      <trkpt lat="43.97896" lon="4.91585">
        <ele>50.599998474121</ele>
        <time>2025-04-21T10:09:06.000Z</time>
      </trkpt>
      <trkpt lat="43.97893" lon="4.9158">
        <ele>50.799999237061</ele>
        <time>2025-04-21T10:09:07.000Z</time>
      </trkpt>
      <trkpt lat="43.97873" lon="4.91541">
        <ele>51.400001525879</ele>
        <time>2025-04-21T10:09:15.000Z</time>
      </trkpt>
      <trkpt lat="43.97869" lon="4.91532">
        <ele>51.200000762939</ele>
        <time>2025-04-21T10:09:17.000Z</time>
      </trkpt>
      <trkpt lat="43.97863" lon="4.91515">
        <ele>51.400001525879</ele>
        <time>2025-04-21T10:09:20.000Z</time>
      </trkpt>
      <trkpt lat="43.97851" lon="4.91495">
        <ele>51.799999237061</ele>
        <time>2025-04-21T10:09:24.000Z</time>
      </trkpt>
      <trkpt lat="43.97848" lon="4.91489">
        <ele>52</ele>
        <time>2025-04-21T10:09:25.000Z</time>
      </trkpt>
      <trkpt lat="43.97843" lon="4.91478">
        <ele>52.200000762939</ele>
        <time>2025-04-21T10:09:27.000Z</time>
      </trkpt>
      <trkpt lat="43.97829" lon="4.91444">
        <ele>52</ele>
        <time>2025-04-21T10:09:33.000Z</time>
      </trkpt>
      <trkpt lat="43.97824" lon="4.91432">
        <ele>52.200000762939</ele>
        <time>2025-04-21T10:09:35.000Z</time>
      </trkpt>
      <trkpt lat="43.97815" lon="4.91401">
        <ele>52.599998474121</ele>
        <time>2025-04-21T10:09:40.000Z</time>
      </trkpt>
      <trkpt lat="43.97813" lon="4.91395">
        <ele>52.799999237061</ele>
        <time>2025-04-21T10:09:41.000Z</time>
      </trkpt>
      <trkpt lat="43.97809" lon="4.91375">
        <ele>52.200000762939</ele>
        <time>2025-04-21T10:09:44.000Z</time>
      </trkpt>
      <trkpt lat="43.97807" lon="4.9137">
        <ele>52.400001525879</ele>
        <time>2025-04-21T10:09:45.000Z</time>
      </trkpt>
      <trkpt lat="43.97792" lon="4.91336">
        <ele>53</ele>
        <time>2025-04-21T10:09:51.000Z</time>
      </trkpt>
      <trkpt lat="43.97789" lon="4.91332">
        <ele>52.799999237061</ele>
        <time>2025-04-21T10:09:52.000Z</time>
      </trkpt>
      <trkpt lat="43.97777" lon="4.91321">
        <ele>53</ele>
        <time>2025-04-21T10:09:55.000Z</time>
      </trkpt>
      <trkpt lat="43.97746" lon="4.913">
        <ele>53</ele>
        <time>2025-04-21T10:10:02.000Z</time>
      </trkpt>
      <trkpt lat="43.97724" lon="4.91293">
        <ele>52.799999237061</ele>
        <time>2025-04-21T10:10:07.000Z</time>
      </trkpt>
      <trkpt lat="43.9772" lon="4.91292">
        <ele>52.599998474121</ele>
        <time>2025-04-21T10:10:08.000Z</time>
      </trkpt>
      <trkpt lat="43.97697" lon="4.91287">
        <ele>53</ele>
        <time>2025-04-21T10:10:13.000Z</time>
      </trkpt>
      <trkpt lat="43.97682" lon="4.91284">
        <ele>52.799999237061</ele>
        <time>2025-04-21T10:10:18.000Z</time>
      </trkpt>
      <trkpt lat="43.97677" lon="4.91287">
        <ele>53</ele>
        <time>2025-04-21T10:10:21.000Z</time>
      </trkpt>
      <trkpt lat="43.97675" lon="4.91291">
        <ele>53</ele>
        <time>2025-04-21T10:10:22.000Z</time>
      </trkpt>
      <trkpt lat="43.97669" lon="4.91314">
        <ele>52.799999237061</ele>
        <time>2025-04-21T10:10:27.000Z</time>
      </trkpt>
      <trkpt lat="43.97667" lon="4.91315">
        <ele>52.799999237061</ele>
        <time>2025-04-21T10:10:28.000Z</time>
      </trkpt>
      <trkpt lat="43.97663" lon="4.91316">
        <ele>53</ele>
        <time>2025-04-21T10:10:31.000Z</time>
      </trkpt>
      <trkpt lat="43.9766" lon="4.91315">
        <ele>53</ele>
        <time>2025-04-21T10:10:35.000Z</time>
      </trkpt>
      <trkpt lat="43.97654" lon="4.91315">
        <ele>53.400001525879</ele>
        <time>2025-04-21T10:10:37.000Z</time>
      </trkpt>
      <trkpt lat="43.97631" lon="4.91311">
        <ele>53.400001525879</ele>
        <time>2025-04-21T10:10:43.000Z</time>
      </trkpt>
      <trkpt lat="43.97612" lon="4.91308">
        <ele>54</ele>
        <time>2025-04-21T10:10:47.000Z</time>
      </trkpt>
      <trkpt lat="43.97593" lon="4.91305">
        <ele>53.799999237061</ele>
        <time>2025-04-21T10:10:51.000Z</time>
      </trkpt>
      <trkpt lat="43.97573" lon="4.91305">
        <ele>54.200000762939</ele>
        <time>2025-04-21T10:10:55.000Z</time>
      </trkpt>
      <trkpt lat="43.97568" lon="4.91306">
        <ele>54.200000762939</ele>
        <time>2025-04-21T10:10:56.000Z</time>
      </trkpt>
      <trkpt lat="43.97534" lon="4.91315">
        <ele>54.400001525879</ele>
        <time>2025-04-21T10:11:03.000Z</time>
      </trkpt>
      <trkpt lat="43.9753" lon="4.91314">
        <ele>54.599998474121</ele>
        <time>2025-04-21T10:11:04.000Z</time>
      </trkpt>
      <trkpt lat="43.97514" lon="4.91309">
        <ele>54.599998474121</ele>
        <time>2025-04-21T10:11:08.000Z</time>
      </trkpt>
      <trkpt lat="43.97509" lon="4.91292">
        <ele>54.799999237061</ele>
        <time>2025-04-21T10:11:11.000Z</time>
      </trkpt>
      <trkpt lat="43.97508" lon="4.91286">
        <ele>54.799999237061</ele>
        <time>2025-04-21T10:11:12.000Z</time>
      </trkpt>
      <trkpt lat="43.97506" lon="4.91272">
        <ele>54.799999237061</ele>
        <time>2025-04-21T10:11:14.000Z</time>
      </trkpt>
      <trkpt lat="43.97498" lon="4.91258">
        <ele>55</ele>
        <time>2025-04-21T10:11:17.000Z</time>
      </trkpt>
      <trkpt lat="43.97484" lon="4.91264">
        <ele>54.599998474121</ele>
        <time>2025-04-21T10:11:20.000Z</time>
      </trkpt>
      <trkpt lat="43.9747" lon="4.91273">
        <ele>54.799999237061</ele>
        <time>2025-04-21T10:11:24.000Z</time>
      </trkpt>
      <trkpt lat="43.97466" lon="4.91274">
        <ele>54.799999237061</ele>
        <time>2025-04-21T10:11:25.000Z</time>
      </trkpt>
      <trkpt lat="43.97457" lon="4.91276">
        <ele>55.200000762939</ele>
        <time>2025-04-21T10:11:27.000Z</time>
      </trkpt>
      <trkpt lat="43.97448" lon="4.9128">
        <ele>54.799999237061</ele>
        <time>2025-04-21T10:11:29.000Z</time>
      </trkpt>
      <trkpt lat="43.97424" lon="4.91292">
        <ele>55.400001525879</ele>
        <time>2025-04-21T10:11:35.000Z</time>
      </trkpt>
      <trkpt lat="43.9741" lon="4.91297">
        <ele>55.400001525879</ele>
        <time>2025-04-21T10:11:38.000Z</time>
      </trkpt>
      <trkpt lat="43.97393" lon="4.91304">
        <ele>56</ele>
        <time>2025-04-21T10:11:42.000Z</time>
      </trkpt>
      <trkpt lat="43.97381" lon="4.91306">
        <ele>56</ele>
        <time>2025-04-21T10:11:45.000Z</time>
      </trkpt>
      <trkpt lat="43.97368" lon="4.9131">
        <ele>56</ele>
        <time>2025-04-21T10:11:48.000Z</time>
      </trkpt>
      <trkpt lat="43.97364" lon="4.9131">
        <ele>56.200000762939</ele>
        <time>2025-04-21T10:11:49.000Z</time>
      </trkpt>
      <trkpt lat="43.97357" lon="4.91304">
        <ele>56.200000762939</ele>
        <time>2025-04-21T10:11:51.000Z</time>
      </trkpt>
      <trkpt lat="43.97353" lon="4.91286">
        <ele>56.400001525879</ele>
        <time>2025-04-21T10:11:54.000Z</time>
      </trkpt>
      <trkpt lat="43.97353" lon="4.91279">
        <ele>56.599998474121</ele>
        <time>2025-04-21T10:11:55.000Z</time>
      </trkpt>
      <trkpt lat="43.97351" lon="4.91257">
        <ele>56.400001525879</ele>
        <time>2025-04-21T10:11:58.000Z</time>
      </trkpt>
      <trkpt lat="43.97346" lon="4.91245">
        <ele>56.799999237061</ele>
        <time>2025-04-21T10:12:00.000Z</time>
      </trkpt>
      <trkpt lat="43.97332" lon="4.91236">
        <ele>57</ele>
        <time>2025-04-21T10:12:03.000Z</time>
      </trkpt>
      <trkpt lat="43.97327" lon="4.91236">
        <ele>57.200000762939</ele>
        <time>2025-04-21T10:12:04.000Z</time>
      </trkpt>
      <trkpt lat="43.97317" lon="4.91241">
        <ele>57</ele>
        <time>2025-04-21T10:12:06.000Z</time>
      </trkpt>
      <trkpt lat="43.97303" lon="4.91264">
        <ele>57.200000762939</ele>
        <time>2025-04-21T10:12:10.000Z</time>
      </trkpt>
      <trkpt lat="43.97301" lon="4.91298">
        <ele>57.599998474121</ele>
        <time>2025-04-21T10:12:14.000Z</time>
      </trkpt>
      <trkpt lat="43.973" lon="4.91307">
        <ele>57.599998474121</ele>
        <time>2025-04-21T10:12:15.000Z</time>
      </trkpt>
      <trkpt lat="43.97295" lon="4.91322">
        <ele>57.599998474121</ele>
        <time>2025-04-21T10:12:17.000Z</time>
      </trkpt>
      <trkpt lat="43.97285" lon="4.91343">
        <ele>58.200000762939</ele>
        <time>2025-04-21T10:12:20.000Z</time>
      </trkpt>
      <trkpt lat="43.97261" lon="4.91391">
        <ele>58.799999237061</ele>
        <time>2025-04-21T10:12:27.000Z</time>
      </trkpt>
      <trkpt lat="43.97239" lon="4.91432">
        <ele>59.200000762939</ele>
        <time>2025-04-21T10:12:33.000Z</time>
      </trkpt>
      <trkpt lat="43.97233" lon="4.91445">
        <ele>59.599998474121</ele>
        <time>2025-04-21T10:12:35.000Z</time>
      </trkpt>
      <trkpt lat="43.97215" lon="4.91479">
        <ele>60.200000762939</ele>
        <time>2025-04-21T10:12:40.000Z</time>
      </trkpt>
      <trkpt lat="43.97197" lon="4.91513">
        <ele>60.799999237061</ele>
        <time>2025-04-21T10:12:45.000Z</time>
      </trkpt>
      <trkpt lat="43.9718" lon="4.91547">
        <ele>61.599998474121</ele>
        <time>2025-04-21T10:12:50.000Z</time>
      </trkpt>
      <trkpt lat="43.97166" lon="4.91574">
        <ele>62</ele>
        <time>2025-04-21T10:12:54.000Z</time>
      </trkpt>
      <trkpt lat="43.97144" lon="4.91615">
        <ele>62.599998474121</ele>
        <time>2025-04-21T10:13:00.000Z</time>
      </trkpt>
      <trkpt lat="43.97129" lon="4.91642">
        <ele>63</ele>
        <time>2025-04-21T10:13:04.000Z</time>
      </trkpt>
      <trkpt lat="43.9711" lon="4.91676">
        <ele>63.799999237061</ele>
        <time>2025-04-21T10:13:09.000Z</time>
      </trkpt>
      <trkpt lat="43.97102" lon="4.91689">
        <ele>64</ele>
        <time>2025-04-21T10:13:11.000Z</time>
      </trkpt>
      <trkpt lat="43.97078" lon="4.91726">
        <ele>64.800003051758</ele>
        <time>2025-04-21T10:13:17.000Z</time>
      </trkpt>
      <trkpt lat="43.97069" lon="4.91738">
        <ele>65.199996948242</ele>
        <time>2025-04-21T10:13:19.000Z</time>
      </trkpt>
      <trkpt lat="43.97055" lon="4.91756">
        <ele>66</ele>
        <time>2025-04-21T10:13:22.000Z</time>
      </trkpt>
      <trkpt lat="43.97033" lon="4.91784">
        <ele>67.199996948242</ele>
        <time>2025-04-21T10:13:27.000Z</time>
      </trkpt>
      <trkpt lat="43.97028" lon="4.9179">
        <ele>67.199996948242</ele>
        <time>2025-04-21T10:13:28.000Z</time>
      </trkpt>
      <trkpt lat="43.97005" lon="4.91817">
        <ele>68.199996948242</ele>
        <time>2025-04-21T10:13:33.000Z</time>
      </trkpt>
      <trkpt lat="43.96992" lon="4.91834">
        <ele>69.400001525879</ele>
        <time>2025-04-21T10:13:36.000Z</time>
      </trkpt>
      <trkpt lat="43.96983" lon="4.91845">
        <ele>69.400001525879</ele>
        <time>2025-04-21T10:13:38.000Z</time>
      </trkpt>
      <trkpt lat="43.96959" lon="4.91873">
        <ele>70.400001525879</ele>
        <time>2025-04-21T10:13:43.000Z</time>
      </trkpt>
      <trkpt lat="43.96941" lon="4.91895">
        <ele>70.800003051758</ele>
        <time>2025-04-21T10:13:47.000Z</time>
      </trkpt>
      <trkpt lat="43.96917" lon="4.91923">
        <ele>71.400001525879</ele>
        <time>2025-04-21T10:13:52.000Z</time>
      </trkpt>
      <trkpt lat="43.96898" lon="4.91947">
        <ele>71.599998474121</ele>
        <time>2025-04-21T10:13:56.000Z</time>
      </trkpt>
      <trkpt lat="43.96879" lon="4.91971">
        <ele>71.199996948242</ele>
        <time>2025-04-21T10:14:00.000Z</time>
      </trkpt>
      <trkpt lat="43.96864" lon="4.91989">
        <ele>71.599998474121</ele>
        <time>2025-04-21T10:14:03.000Z</time>
      </trkpt>
      <trkpt lat="43.96823" lon="4.92047">
        <ele>71.199996948242</ele>
        <time>2025-04-21T10:14:12.000Z</time>
      </trkpt>
      <trkpt lat="43.96786" lon="4.92113">
        <ele>70.599998474121</ele>
        <time>2025-04-21T10:14:21.000Z</time>
      </trkpt>
      <trkpt lat="43.96775" lon="4.92137">
        <ele>70.400001525879</ele>
        <time>2025-04-21T10:14:24.000Z</time>
      </trkpt>
      <trkpt lat="43.96757" lon="4.9218">
        <ele>69.800003051758</ele>
        <time>2025-04-21T10:14:29.000Z</time>
      </trkpt>
      <trkpt lat="43.96739" lon="4.92224">
        <ele>69.199996948242</ele>
        <time>2025-04-21T10:14:34.000Z</time>
      </trkpt>
      <trkpt lat="43.96724" lon="4.92259">
        <ele>68.199996948242</ele>
        <time>2025-04-21T10:14:38.000Z</time>
      </trkpt>
      <trkpt lat="43.9672" lon="4.92267">
        <ele>68.199996948242</ele>
        <time>2025-04-21T10:14:39.000Z</time>
      </trkpt>
      <trkpt lat="43.96689" lon="4.92335">
        <ele>67.800003051758</ele>
        <time>2025-04-21T10:14:47.000Z</time>
      </trkpt>
      <trkpt lat="43.96685" lon="4.92344">
        <ele>67.400001525879</ele>
        <time>2025-04-21T10:14:48.000Z</time>
      </trkpt>
      <trkpt lat="43.96654" lon="4.92416">
        <ele>67.599998474121</ele>
        <time>2025-04-21T10:14:57.000Z</time>
      </trkpt>
      <trkpt lat="43.96626" lon="4.92484">
        <ele>67.800003051758</ele>
        <time>2025-04-21T10:15:06.000Z</time>
      </trkpt>
      <trkpt lat="43.96623" lon="4.92492">
        <ele>68</ele>
        <time>2025-04-21T10:15:07.000Z</time>
      </trkpt>
      <trkpt lat="43.96603" lon="4.92544">
        <ele>67.800003051758</ele>
        <time>2025-04-21T10:15:14.000Z</time>
      </trkpt>
      <trkpt lat="43.96576" lon="4.92615">
        <ele>68.199996948242</ele>
        <time>2025-04-21T10:15:23.000Z</time>
      </trkpt>
      <trkpt lat="43.96547" lon="4.92674">
        <ele>68.199996948242</ele>
        <time>2025-04-21T10:15:31.000Z</time>
      </trkpt>
      <trkpt lat="43.96502" lon="4.92728">
        <ele>68.400001525879</ele>
        <time>2025-04-21T10:15:40.000Z</time>
      </trkpt>
      <trkpt lat="43.96454" lon="4.92776">
        <ele>68.400001525879</ele>
        <time>2025-04-21T10:15:49.000Z</time>
      </trkpt>
      <trkpt lat="43.96412" lon="4.92815">
        <ele>68.199996948242</ele>
        <time>2025-04-21T10:15:57.000Z</time>
      </trkpt>
      <trkpt lat="43.96364" lon="4.92859">
        <ele>68.400001525879</ele>
        <time>2025-04-21T10:16:06.000Z</time>
      </trkpt>
      <trkpt lat="43.96336" lon="4.92885">
        <ele>68.599998474121</ele>
        <time>2025-04-21T10:16:12.000Z</time>
      </trkpt>
      <trkpt lat="43.96325" lon="4.92892">
        <ele>68.199996948242</ele>
        <time>2025-04-21T10:16:14.000Z</time>
      </trkpt>
      <trkpt lat="43.96307" lon="4.92897">
        <ele>68.400001525879</ele>
        <time>2025-04-21T10:16:17.000Z</time>
      </trkpt>
      <trkpt lat="43.96295" lon="4.92901">
        <ele>68.599998474121</ele>
        <time>2025-04-21T10:16:19.000Z</time>
      </trkpt>
      <trkpt lat="43.9629" lon="4.92915">
        <ele>68.599998474121</ele>
        <time>2025-04-21T10:16:21.000Z</time>
      </trkpt>
      <trkpt lat="43.96278" lon="4.92946">
        <ele>68.599998474121</ele>
        <time>2025-04-21T10:16:25.000Z</time>
      </trkpt>
      <trkpt lat="43.96268" lon="4.92957">
        <ele>68.400001525879</ele>
        <time>2025-04-21T10:16:27.000Z</time>
      </trkpt>
      <trkpt lat="43.96237" lon="4.9299">
        <ele>68.800003051758</ele>
        <time>2025-04-21T10:16:33.000Z</time>
      </trkpt>
      <trkpt lat="43.96191" lon="4.9304">
        <ele>68.400001525879</ele>
        <time>2025-04-21T10:16:42.000Z</time>
      </trkpt>
      <trkpt lat="43.9616" lon="4.93072">
        <ele>68.199996948242</ele>
        <time>2025-04-21T10:16:48.000Z</time>
      </trkpt>
      <trkpt lat="43.96125" lon="4.93112">
        <ele>68.800003051758</ele>
        <time>2025-04-21T10:16:55.000Z</time>
      </trkpt>
      <trkpt lat="43.96091" lon="4.93163">
        <ele>69</ele>
        <time>2025-04-21T10:17:03.000Z</time>
      </trkpt>
      <trkpt lat="43.96054" lon="4.93224">
        <ele>68.400001525879</ele>
        <time>2025-04-21T10:17:12.000Z</time>
      </trkpt>
      <trkpt lat="43.96046" lon="4.93238">
        <ele>68</ele>
        <time>2025-04-21T10:17:14.000Z</time>
      </trkpt>
      <trkpt lat="43.9602" lon="4.9328">
        <ele>68</ele>
        <time>2025-04-21T10:17:20.000Z</time>
      </trkpt>
      <trkpt lat="43.96015" lon="4.93286">
        <ele>68.199996948242</ele>
        <time>2025-04-21T10:17:21.000Z</time>
      </trkpt>
      <trkpt lat="43.9598" lon="4.93327">
        <ele>68.400001525879</ele>
        <time>2025-04-21T10:17:28.000Z</time>
      </trkpt>
      <trkpt lat="43.95944" lon="4.93347">
        <ele>68.400001525879</ele>
        <time>2025-04-21T10:17:34.000Z</time>
      </trkpt>
      <trkpt lat="43.95932" lon="4.93351">
        <ele>68.400001525879</ele>
        <time>2025-04-21T10:17:36.000Z</time>
      </trkpt>
      <trkpt lat="43.95913" lon="4.93357">
        <ele>68.400001525879</ele>
        <time>2025-04-21T10:17:39.000Z</time>
      </trkpt>
      <trkpt lat="43.95857" lon="4.93379">
        <ele>68.599998474121</ele>
        <time>2025-04-21T10:17:48.000Z</time>
      </trkpt>
      <trkpt lat="43.95801" lon="4.93401">
        <ele>68</ele>
        <time>2025-04-21T10:17:57.000Z</time>
      </trkpt>
      <trkpt lat="43.9577" lon="4.9342">
        <ele>67.400001525879</ele>
        <time>2025-04-21T10:18:02.000Z</time>
      </trkpt>
      <trkpt lat="43.95765" lon="4.93426">
        <ele>67.800003051758</ele>
        <time>2025-04-21T10:18:03.000Z</time>
      </trkpt>
      <trkpt lat="43.95727" lon="4.93456">
        <ele>67.800003051758</ele>
        <time>2025-04-21T10:18:10.000Z</time>
      </trkpt>
      <trkpt lat="43.9568" lon="4.93473">
        <ele>68.400001525879</ele>
        <time>2025-04-21T10:18:18.000Z</time>
      </trkpt>
      <trkpt lat="43.95643" lon="4.93484">
        <ele>68.400001525879</ele>
        <time>2025-04-21T10:18:24.000Z</time>
      </trkpt>
      <trkpt lat="43.95588" lon="4.93503">
        <ele>68.400001525879</ele>
        <time>2025-04-21T10:18:33.000Z</time>
      </trkpt>
      <trkpt lat="43.95575" lon="4.93507">
        <ele>68.400001525879</ele>
        <time>2025-04-21T10:18:35.000Z</time>
      </trkpt>
      <trkpt lat="43.95519" lon="4.93531">
        <ele>68.400001525879</ele>
        <time>2025-04-21T10:18:44.000Z</time>
      </trkpt>
      <trkpt lat="43.95466" lon="4.93564">
        <ele>68.800003051758</ele>
        <time>2025-04-21T10:18:53.000Z</time>
      </trkpt>
      <trkpt lat="43.95425" lon="4.93585">
        <ele>68.400001525879</ele>
        <time>2025-04-21T10:19:00.000Z</time>
      </trkpt>
      <trkpt lat="43.95371" lon="4.93606">
        <ele>68.599998474121</ele>
        <time>2025-04-21T10:19:09.000Z</time>
      </trkpt>
      <trkpt lat="43.95346" lon="4.93614">
        <ele>68.800003051758</ele>
        <time>2025-04-21T10:19:13.000Z</time>
      </trkpt>
      <trkpt lat="43.95292" lon="4.93638">
        <ele>69</ele>
        <time>2025-04-21T10:19:22.000Z</time>
      </trkpt>
      <trkpt lat="43.95286" lon="4.93641">
        <ele>69</ele>
        <time>2025-04-21T10:19:23.000Z</time>
      </trkpt>
      <trkpt lat="43.95246" lon="4.93665">
        <ele>69.400001525879</ele>
        <time>2025-04-21T10:19:30.000Z</time>
      </trkpt>
      <trkpt lat="43.95241" lon="4.93669">
        <ele>69.400001525879</ele>
        <time>2025-04-21T10:19:31.000Z</time>
      </trkpt>
      <trkpt lat="43.952" lon="4.93708">
        <ele>69.400001525879</ele>
        <time>2025-04-21T10:19:39.000Z</time>
      </trkpt>
      <trkpt lat="43.95155" lon="4.9375">
        <ele>69.400001525879</ele>
        <time>2025-04-21T10:19:48.000Z</time>
      </trkpt>
      <trkpt lat="43.95145" lon="4.93758">
        <ele>70</ele>
        <time>2025-04-21T10:19:50.000Z</time>
      </trkpt>
      <trkpt lat="43.95098" lon="4.938">
        <ele>69.800003051758</ele>
        <time>2025-04-21T10:19:59.000Z</time>
      </trkpt>
      <trkpt lat="43.95087" lon="4.9381">
        <ele>70.199996948242</ele>
        <time>2025-04-21T10:20:01.000Z</time>
      </trkpt>
      <trkpt lat="43.95038" lon="4.93853">
        <ele>69.400001525879</ele>
        <time>2025-04-21T10:20:10.000Z</time>
      </trkpt>
      <trkpt lat="43.95027" lon="4.93862">
        <ele>69.400001525879</ele>
        <time>2025-04-21T10:20:12.000Z</time>
      </trkpt>
      <trkpt lat="43.9498" lon="4.93906">
        <ele>69.400001525879</ele>
        <time>2025-04-21T10:20:21.000Z</time>
      </trkpt>
      <trkpt lat="43.94974" lon="4.9391">
        <ele>69.400001525879</ele>
        <time>2025-04-21T10:20:22.000Z</time>
      </trkpt>
      <trkpt lat="43.94945" lon="4.93937">
        <ele>70</ele>
        <time>2025-04-21T10:20:28.000Z</time>
      </trkpt>
      <trkpt lat="43.9494" lon="4.93938">
        <ele>70</ele>
        <time>2025-04-21T10:20:29.000Z</time>
      </trkpt>
      <trkpt lat="43.94926" lon="4.93928">
        <ele>70</ele>
        <time>2025-04-21T10:20:32.000Z</time>
      </trkpt>
      <trkpt lat="43.94918" lon="4.93917">
        <ele>70.599998474121</ele>
        <time>2025-04-21T10:20:34.000Z</time>
      </trkpt>
      <trkpt lat="43.94911" lon="4.93905">
        <ele>70.800003051758</ele>
        <time>2025-04-21T10:20:36.000Z</time>
      </trkpt>
      <trkpt lat="43.94904" lon="4.93891">
        <ele>71.400001525879</ele>
        <time>2025-04-21T10:20:38.000Z</time>
      </trkpt>
      <trkpt lat="43.94902" lon="4.93884">
        <ele>71.599998474121</ele>
        <time>2025-04-21T10:20:39.000Z</time>
      </trkpt>
      <trkpt lat="43.94888" lon="4.93843">
        <ele>73</ele>
        <time>2025-04-21T10:20:45.000Z</time>
      </trkpt>
      <trkpt lat="43.94872" lon="4.93796">
        <ele>74</ele>
        <time>2025-04-21T10:20:52.000Z</time>
      </trkpt>
      <trkpt lat="43.94863" lon="4.93771">
        <ele>74.800003051758</ele>
        <time>2025-04-21T10:20:56.000Z</time>
      </trkpt>
      <trkpt lat="43.94858" lon="4.93758">
        <ele>75.199996948242</ele>
        <time>2025-04-21T10:20:58.000Z</time>
      </trkpt>
      <trkpt lat="43.94848" lon="4.93732">
        <ele>76.400001525879</ele>
        <time>2025-04-21T10:21:02.000Z</time>
      </trkpt>
      <trkpt lat="43.94839" lon="4.93708">
        <ele>77</ele>
        <time>2025-04-21T10:21:06.000Z</time>
      </trkpt>
      <trkpt lat="43.94835" lon="4.93695">
        <ele>77.599998474121</ele>
        <time>2025-04-21T10:21:08.000Z</time>
      </trkpt>
      <trkpt lat="43.94823" lon="4.93662">
        <ele>78.800003051758</ele>
        <time>2025-04-21T10:21:13.000Z</time>
      </trkpt>
      <trkpt lat="43.94821" lon="4.93655">
        <ele>79</ele>
        <time>2025-04-21T10:21:14.000Z</time>
      </trkpt>
      <trkpt lat="43.94813" lon="4.93636">
        <ele>79.800003051758</ele>
        <time>2025-04-21T10:21:17.000Z</time>
      </trkpt>
      <trkpt lat="43.94802" lon="4.93603">
        <ele>81.199996948242</ele>
        <time>2025-04-21T10:21:22.000Z</time>
      </trkpt>
      <trkpt lat="43.94793" lon="4.93579">
        <ele>82.199996948242</ele>
        <time>2025-04-21T10:21:26.000Z</time>
      </trkpt>
      <trkpt lat="43.94791" lon="4.93574">
        <ele>82.400001525879</ele>
        <time>2025-04-21T10:21:27.000Z</time>
      </trkpt>
      <trkpt lat="43.94785" lon="4.93558">
        <ele>83.400001525879</ele>
        <time>2025-04-21T10:21:30.000Z</time>
      </trkpt>
      <trkpt lat="43.94777" lon="4.93541">
        <ele>84.599998474121</ele>
        <time>2025-04-21T10:21:34.000Z</time>
      </trkpt>
      <trkpt lat="43.94775" lon="4.9354">
        <ele>84.800003051758</ele>
        <time>2025-04-21T10:21:35.000Z</time>
      </trkpt>
      <trkpt lat="43.94765" lon="4.93543">
        <ele>85</ele>
        <time>2025-04-21T10:21:38.000Z</time>
      </trkpt>
      <trkpt lat="43.94761" lon="4.93545">
        <ele>85.199996948242</ele>
        <time>2025-04-21T10:21:39.000Z</time>
      </trkpt>
      <trkpt lat="43.94753" lon="4.93549">
        <ele>85.800003051758</ele>
        <time>2025-04-21T10:21:41.000Z</time>
      </trkpt>
      <trkpt lat="43.94731" lon="4.9356">
        <ele>87</ele>
        <time>2025-04-21T10:21:46.000Z</time>
      </trkpt>
      <trkpt lat="43.94714" lon="4.9357">
        <ele>88.400001525879</ele>
        <time>2025-04-21T10:21:50.000Z</time>
      </trkpt>
      <trkpt lat="43.94694" lon="4.93586">
        <ele>89.599998474121</ele>
        <time>2025-04-21T10:21:55.000Z</time>
      </trkpt>
      <trkpt lat="43.94689" lon="4.93589">
        <ele>89.800003051758</ele>
        <time>2025-04-21T10:21:56.000Z</time>
      </trkpt>
      <trkpt lat="43.94648" lon="4.93614">
        <ele>90.599998474121</ele>
        <time>2025-04-21T10:22:04.000Z</time>
      </trkpt>
      <trkpt lat="43.94601" lon="4.93643">
        <ele>91.800003051758</ele>
        <time>2025-04-21T10:22:13.000Z</time>
      </trkpt>
      <trkpt lat="43.94584" lon="4.93673">
        <ele>91.599998474121</ele>
        <time>2025-04-21T10:22:17.000Z</time>
      </trkpt>
      <trkpt lat="43.94558" lon="4.93713">
        <ele>91.400001525879</ele>
        <time>2025-04-21T10:22:23.000Z</time>
      </trkpt>
      <trkpt lat="43.9452" lon="4.93764">
        <ele>91.400001525879</ele>
        <time>2025-04-21T10:22:31.000Z</time>
      </trkpt>
      <trkpt lat="43.94486" lon="4.93808">
        <ele>91</ele>
        <time>2025-04-21T10:22:38.000Z</time>
      </trkpt>
      <trkpt lat="43.9446" lon="4.93834">
        <ele>90.800003051758</ele>
        <time>2025-04-21T10:22:43.000Z</time>
      </trkpt>
      <trkpt lat="43.94455" lon="4.93839">
        <ele>90.800003051758</ele>
        <time>2025-04-21T10:22:44.000Z</time>
      </trkpt>
      <trkpt lat="43.94417" lon="4.93863">
        <ele>91.800003051758</ele>
        <time>2025-04-21T10:22:51.000Z</time>
      </trkpt>
      <trkpt lat="43.94406" lon="4.93867">
        <ele>92</ele>
        <time>2025-04-21T10:22:53.000Z</time>
      </trkpt>
      <trkpt lat="43.94386" lon="4.93878">
        <ele>92.400001525879</ele>
        <time>2025-04-21T10:22:57.000Z</time>
      </trkpt>
      <trkpt lat="43.94358" lon="4.93898">
        <ele>93.199996948242</ele>
        <time>2025-04-21T10:23:02.000Z</time>
      </trkpt>
      <trkpt lat="43.94353" lon="4.93901">
        <ele>93.400001525879</ele>
        <time>2025-04-21T10:23:03.000Z</time>
      </trkpt>
      <trkpt lat="43.94307" lon="4.93933">
        <ele>93.599998474121</ele>
        <time>2025-04-21T10:23:11.000Z</time>
      </trkpt>
      <trkpt lat="43.94285" lon="4.9395">
        <ele>94.400001525879</ele>
        <time>2025-04-21T10:23:15.000Z</time>
      </trkpt>
      <trkpt lat="43.94264" lon="4.93967">
        <ele>94.400001525879</ele>
        <time>2025-04-21T10:23:19.000Z</time>
      </trkpt>
      <trkpt lat="43.94217" lon="4.94005">
        <ele>94.400001525879</ele>
        <time>2025-04-21T10:23:28.000Z</time>
      </trkpt>
      <trkpt lat="43.94167" lon="4.94043">
        <ele>94.400001525879</ele>
        <time>2025-04-21T10:23:37.000Z</time>
      </trkpt>
      <trkpt lat="43.9416" lon="4.94048">
        <ele>94.199996948242</ele>
        <time>2025-04-21T10:23:38.000Z</time>
      </trkpt>
      <trkpt lat="43.94126" lon="4.94061">
        <ele>93.800003051758</ele>
        <time>2025-04-21T10:23:43.000Z</time>
      </trkpt>
      <trkpt lat="43.94086" lon="4.94066">
        <ele>93.199996948242</ele>
        <time>2025-04-21T10:23:49.000Z</time>
      </trkpt>
      <trkpt lat="43.9408" lon="4.94067">
        <ele>93.400001525879</ele>
        <time>2025-04-21T10:23:50.000Z</time>
      </trkpt>
      <trkpt lat="43.94056" lon="4.94074">
        <ele>93.199996948242</ele>
        <time>2025-04-21T10:23:54.000Z</time>
      </trkpt>
      <trkpt lat="43.94039" lon="4.94083">
        <ele>93.400001525879</ele>
        <time>2025-04-21T10:23:57.000Z</time>
      </trkpt>
      <trkpt lat="43.94009" lon="4.94097">
        <ele>94.199996948242</ele>
        <time>2025-04-21T10:24:02.000Z</time>
      </trkpt>
      <trkpt lat="43.93997" lon="4.94102">
        <ele>94.599998474121</ele>
        <time>2025-04-21T10:24:04.000Z</time>
      </trkpt>
      <trkpt lat="43.9398" lon="4.94111">
        <ele>95.400001525879</ele>
        <time>2025-04-21T10:24:07.000Z</time>
      </trkpt>
      <trkpt lat="43.93953" lon="4.94132">
        <ele>96.199996948242</ele>
        <time>2025-04-21T10:24:12.000Z</time>
      </trkpt>
      <trkpt lat="43.93928" lon="4.94168">
        <ele>96</ele>
        <time>2025-04-21T10:24:18.000Z</time>
      </trkpt>
      <trkpt lat="43.939" lon="4.94218">
        <ele>94.199996948242</ele>
        <time>2025-04-21T10:24:25.000Z</time>
      </trkpt>
      <trkpt lat="43.93895" lon="4.94225">
        <ele>94</ele>
        <time>2025-04-21T10:24:26.000Z</time>
      </trkpt>
      <trkpt lat="43.93871" lon="4.94259">
        <ele>93</ele>
        <time>2025-04-21T10:24:31.000Z</time>
      </trkpt>
      <trkpt lat="43.93857" lon="4.94278">
        <ele>92.599998474121</ele>
        <time>2025-04-21T10:24:34.000Z</time>
      </trkpt>
      <trkpt lat="43.93836" lon="4.94297">
        <ele>91.800003051758</ele>
        <time>2025-04-21T10:24:38.000Z</time>
      </trkpt>
      <trkpt lat="43.93823" lon="4.94304">
        <ele>91</ele>
        <time>2025-04-21T10:24:40.000Z</time>
      </trkpt>
      <trkpt lat="43.9381" lon="4.94313">
        <ele>90.599998474121</ele>
        <time>2025-04-21T10:24:42.000Z</time>
      </trkpt>
      <trkpt lat="43.93777" lon="4.94333">
        <ele>89.599998474121</ele>
        <time>2025-04-21T10:24:47.000Z</time>
      </trkpt>
      <trkpt lat="43.93762" lon="4.9434">
        <ele>89.400001525879</ele>
        <time>2025-04-21T10:24:49.000Z</time>
      </trkpt>
      <trkpt lat="43.93722" lon="4.94355">
        <ele>88.400001525879</ele>
        <time>2025-04-21T10:24:54.000Z</time>
      </trkpt>
      <trkpt lat="43.93706" lon="4.94362">
        <ele>87.400001525879</ele>
        <time>2025-04-21T10:24:56.000Z</time>
      </trkpt>
      <trkpt lat="43.9369" lon="4.94369">
        <ele>86</ele>
        <time>2025-04-21T10:24:58.000Z</time>
      </trkpt>
      <trkpt lat="43.93675" lon="4.94376">
        <ele>84.800003051758</ele>
        <time>2025-04-21T10:25:00.000Z</time>
      </trkpt>
      <trkpt lat="43.93659" lon="4.94384">
        <ele>83.800003051758</ele>
        <time>2025-04-21T10:25:02.000Z</time>
      </trkpt>
      <trkpt lat="43.9364" lon="4.94394">
        <ele>83.400001525879</ele>
        <time>2025-04-21T10:25:04.000Z</time>
      </trkpt>
      <trkpt lat="43.93585" lon="4.94422">
        <ele>83</ele>
        <time>2025-04-21T10:25:10.000Z</time>
      </trkpt>
      <trkpt lat="43.93576" lon="4.94426">
        <ele>82.800003051758</ele>
        <time>2025-04-21T10:25:11.000Z</time>
      </trkpt>
      <trkpt lat="43.93559" lon="4.94435">
        <ele>82.400001525879</ele>
        <time>2025-04-21T10:25:13.000Z</time>
      </trkpt>
      <trkpt lat="43.93503" lon="4.94461">
        <ele>82.199996948242</ele>
        <time>2025-04-21T10:25:20.000Z</time>
      </trkpt>
      <trkpt lat="43.93461" lon="4.94477">
        <ele>82</ele>
        <time>2025-04-21T10:25:26.000Z</time>
      </trkpt>
      <trkpt lat="43.93418" lon="4.945">
        <ele>82</ele>
        <time>2025-04-21T10:25:33.000Z</time>
      </trkpt>
      <trkpt lat="43.93364" lon="4.94524">
        <ele>82.199996948242</ele>
        <time>2025-04-21T10:25:42.000Z</time>
      </trkpt>
      <trkpt lat="43.93353" lon="4.9453">
        <ele>82.199996948242</ele>
        <time>2025-04-21T10:25:44.000Z</time>
      </trkpt>
      <trkpt lat="43.93311" lon="4.94556">
        <ele>83.400001525879</ele>
        <time>2025-04-21T10:25:52.000Z</time>
      </trkpt>
      <trkpt lat="43.93258" lon="4.94586">
        <ele>83.800003051758</ele>
        <time>2025-04-21T10:26:01.000Z</time>
      </trkpt>
      <trkpt lat="43.93247" lon="4.94593">
        <ele>84</ele>
        <time>2025-04-21T10:26:03.000Z</time>
      </trkpt>
      <trkpt lat="43.93208" lon="4.94616">
        <ele>84.800003051758</ele>
        <time>2025-04-21T10:26:10.000Z</time>
      </trkpt>
      <trkpt lat="43.93156" lon="4.9464">
        <ele>85</ele>
        <time>2025-04-21T10:26:19.000Z</time>
      </trkpt>
      <trkpt lat="43.9315" lon="4.94642">
        <ele>85.199996948242</ele>
        <time>2025-04-21T10:26:20.000Z</time>
      </trkpt>
      <trkpt lat="43.93118" lon="4.94646">
        <ele>85.400001525879</ele>
        <time>2025-04-21T10:26:26.000Z</time>
      </trkpt>
      <trkpt lat="43.93109" lon="4.94646">
        <ele>85.599998474121</ele>
        <time>2025-04-21T10:26:28.000Z</time>
      </trkpt>
      <trkpt lat="43.93096" lon="4.94638">
        <ele>85.800003051758</ele>
        <time>2025-04-21T10:26:31.000Z</time>
      </trkpt>
      <trkpt lat="43.93091" lon="4.94634">
        <ele>85.800003051758</ele>
        <time>2025-04-21T10:26:32.000Z</time>
      </trkpt>
      <trkpt lat="43.93087" lon="4.9463">
        <ele>86.199996948242</ele>
        <time>2025-04-21T10:26:33.000Z</time>
      </trkpt>
      <trkpt lat="43.93068" lon="4.94619">
        <ele>87.400001525879</ele>
        <time>2025-04-21T10:26:37.000Z</time>
      </trkpt>
      <trkpt lat="43.93063" lon="4.94617">
        <ele>87.599998474121</ele>
        <time>2025-04-21T10:26:38.000Z</time>
      </trkpt>
      <trkpt lat="43.93053" lon="4.94614">
        <ele>88.400001525879</ele>
        <time>2025-04-21T10:26:40.000Z</time>
      </trkpt>
      <trkpt lat="43.93031" lon="4.9461">
        <ele>89.599998474121</ele>
        <time>2025-04-21T10:26:44.000Z</time>
      </trkpt>
      <trkpt lat="43.93025" lon="4.94609">
        <ele>89.800003051758</ele>
        <time>2025-04-21T10:26:45.000Z</time>
      </trkpt>
      <trkpt lat="43.93004" lon="4.94606">
        <ele>90.599998474121</ele>
        <time>2025-04-21T10:26:49.000Z</time>
      </trkpt>
      <trkpt lat="43.92988" lon="4.94606">
        <ele>91.599998474121</ele>
        <time>2025-04-21T10:26:52.000Z</time>
      </trkpt>
      <trkpt lat="43.92983" lon="4.94607">
        <ele>91.800003051758</ele>
        <time>2025-04-21T10:26:53.000Z</time>
      </trkpt>
      <trkpt lat="43.92946" lon="4.94615">
        <ele>92</ele>
        <time>2025-04-21T10:27:00.000Z</time>
      </trkpt>
      <trkpt lat="43.92935" lon="4.94614">
        <ele>92.199996948242</ele>
        <time>2025-04-21T10:27:02.000Z</time>
      </trkpt>
      <trkpt lat="43.92924" lon="4.9461">
        <ele>92.199996948242</ele>
        <time>2025-04-21T10:27:04.000Z</time>
      </trkpt>
      <trkpt lat="43.92911" lon="4.94603">
        <ele>92.800003051758</ele>
        <time>2025-04-21T10:27:07.000Z</time>
      </trkpt>
      <trkpt lat="43.929" lon="4.94596">
        <ele>93.800003051758</ele>
        <time>2025-04-21T10:27:10.000Z</time>
      </trkpt>
      <trkpt lat="43.929" lon="4.94591">
        <ele>94.199996948242</ele>
        <time>2025-04-21T10:27:11.000Z</time>
      </trkpt>
      <trkpt lat="43.92902" lon="4.94583">
        <ele>94.599998474121</ele>
        <time>2025-04-21T10:27:13.000Z</time>
      </trkpt>
      <trkpt lat="43.92911" lon="4.94578">
        <ele>95.599998474121</ele>
        <time>2025-04-21T10:27:16.000Z</time>
      </trkpt>
      <trkpt lat="43.92915" lon="4.94579">
        <ele>95.800003051758</ele>
        <time>2025-04-21T10:27:17.000Z</time>
      </trkpt>
      <trkpt lat="43.92926" lon="4.94583">
        <ele>96.599998474121</ele>
        <time>2025-04-21T10:27:20.000Z</time>
      </trkpt>
      <trkpt lat="43.9293" lon="4.94585">
        <ele>97</ele>
        <time>2025-04-21T10:27:21.000Z</time>
      </trkpt>
      <trkpt lat="43.92935" lon="4.94587">
        <ele>97.199996948242</ele>
        <time>2025-04-21T10:27:22.000Z</time>
      </trkpt>
      <trkpt lat="43.92944" lon="4.94591">
        <ele>97.400001525879</ele>
        <time>2025-04-21T10:27:24.000Z</time>
      </trkpt>
      <trkpt lat="43.92954" lon="4.94589">
        <ele>98</ele>
        <time>2025-04-21T10:27:26.000Z</time>
      </trkpt>
      <trkpt lat="43.92959" lon="4.94586">
        <ele>98.199996948242</ele>
        <time>2025-04-21T10:27:27.000Z</time>
      </trkpt>
      <trkpt lat="43.92969" lon="4.94579">
        <ele>99</ele>
        <time>2025-04-21T10:27:29.000Z</time>
      </trkpt>
      <trkpt lat="43.92973" lon="4.94575">
        <ele>99.199996948242</ele>
        <time>2025-04-21T10:27:30.000Z</time>
      </trkpt>
      <trkpt lat="43.92981" lon="4.94567">
        <ele>99.599998474121</ele>
        <time>2025-04-21T10:27:32.000Z</time>
      </trkpt>
      <trkpt lat="43.92985" lon="4.94563">
        <ele>100.19999694824</ele>
        <time>2025-04-21T10:27:33.000Z</time>
      </trkpt>
      <trkpt lat="43.93001" lon="4.94548">
        <ele>101.19999694824</ele>
        <time>2025-04-21T10:27:37.000Z</time>
      </trkpt>
      <trkpt lat="43.93009" lon="4.9454">
        <ele>101.80000305176</ele>
        <time>2025-04-21T10:27:39.000Z</time>
      </trkpt>
      <trkpt lat="43.93012" lon="4.94535">
        <ele>102.19999694824</ele>
        <time>2025-04-21T10:27:40.000Z</time>
      </trkpt>
      <trkpt lat="43.93014" lon="4.9453">
        <ele>102.40000152588</ele>
        <time>2025-04-21T10:27:41.000Z</time>
      </trkpt>
      <trkpt lat="43.93019" lon="4.94518">
        <ele>103</ele>
        <time>2025-04-21T10:27:43.000Z</time>
      </trkpt>
      <trkpt lat="43.93019" lon="4.94512">
        <ele>103.19999694824</ele>
        <time>2025-04-21T10:27:44.000Z</time>
      </trkpt>
      <trkpt lat="43.93018" lon="4.94505">
        <ele>103.59999847412</ele>
        <time>2025-04-21T10:27:45.000Z</time>
      </trkpt>
      <trkpt lat="43.93008" lon="4.94491">
        <ele>104.40000152588</ele>
        <time>2025-04-21T10:27:48.000Z</time>
      </trkpt>
      <trkpt lat="43.93003" lon="4.94488">
        <ele>104.80000305176</ele>
        <time>2025-04-21T10:27:49.000Z</time>
      </trkpt>
      <trkpt lat="43.92999" lon="4.94488">
        <ele>105.59999847412</ele>
        <time>2025-04-21T10:27:50.000Z</time>
      </trkpt>
      <trkpt lat="43.92985" lon="4.9449">
        <ele>106.40000152588</ele>
        <time>2025-04-21T10:27:53.000Z</time>
      </trkpt>
      <trkpt lat="43.9298" lon="4.94493">
        <ele>106.80000305176</ele>
        <time>2025-04-21T10:27:54.000Z</time>
      </trkpt>
      <trkpt lat="43.92974" lon="4.94496">
        <ele>107.19999694824</ele>
        <time>2025-04-21T10:27:55.000Z</time>
      </trkpt>
      <trkpt lat="43.92959" lon="4.94505">
        <ele>107.80000305176</ele>
        <time>2025-04-21T10:27:58.000Z</time>
      </trkpt>
      <trkpt lat="43.9294" lon="4.94513">
        <ele>108.80000305176</ele>
        <time>2025-04-21T10:28:02.000Z</time>
      </trkpt>
      <trkpt lat="43.92931" lon="4.94515">
        <ele>109.19999694824</ele>
        <time>2025-04-21T10:28:04.000Z</time>
      </trkpt>
      <trkpt lat="43.92921" lon="4.94507">
        <ele>110.19999694824</ele>
        <time>2025-04-21T10:28:07.000Z</time>
      </trkpt>
      <trkpt lat="43.92924" lon="4.94501">
        <ele>111</ele>
        <time>2025-04-21T10:28:09.000Z</time>
      </trkpt>
      <trkpt lat="43.92929" lon="4.94499">
        <ele>111.40000152588</ele>
        <time>2025-04-21T10:28:10.000Z</time>
      </trkpt>
      <trkpt lat="43.92933" lon="4.94491">
        <ele>112.19999694824</ele>
        <time>2025-04-21T10:28:12.000Z</time>
      </trkpt>
      <trkpt lat="43.92934" lon="4.94487">
        <ele>112.59999847412</ele>
        <time>2025-04-21T10:28:13.000Z</time>
      </trkpt>
      <trkpt lat="43.92935" lon="4.94482">
        <ele>114</ele>
        <time>2025-04-21T10:28:14.000Z</time>
      </trkpt>
      <trkpt lat="43.92936" lon="4.94474">
        <ele>115.40000152588</ele>
        <time>2025-04-21T10:28:16.000Z</time>
      </trkpt>
      <trkpt lat="43.92937" lon="4.94467">
        <ele>116.40000152588</ele>
        <time>2025-04-21T10:28:18.000Z</time>
      </trkpt>
      <trkpt lat="43.92937" lon="4.94463">
        <ele>116.80000305176</ele>
        <time>2025-04-21T10:28:19.000Z</time>
      </trkpt>
      <trkpt lat="43.92938" lon="4.94456">
        <ele>117.59999847412</ele>
        <time>2025-04-21T10:28:21.000Z</time>
      </trkpt>
      <trkpt lat="43.9294" lon="4.9445">
        <ele>118.80000305176</ele>
        <time>2025-04-21T10:28:23.000Z</time>
      </trkpt>
      <trkpt lat="43.92943" lon="4.94441">
        <ele>120</ele>
        <time>2025-04-21T10:28:26.000Z</time>
      </trkpt>
      <trkpt lat="43.92944" lon="4.94437">
        <ele>120</ele>
        <time>2025-04-21T10:28:27.000Z</time>
      </trkpt>
      <trkpt lat="43.92946" lon="4.94427">
        <ele>121.19999694824</ele>
        <time>2025-04-21T10:28:30.000Z</time>
      </trkpt>
      <trkpt lat="43.92948" lon="4.94415">
        <ele>122.59999847412</ele>
        <time>2025-04-21T10:28:33.000Z</time>
      </trkpt>
      <trkpt lat="43.9295" lon="4.94401">
        <ele>123.80000305176</ele>
        <time>2025-04-21T10:28:36.000Z</time>
      </trkpt>
      <trkpt lat="43.92951" lon="4.94396">
        <ele>124</ele>
        <time>2025-04-21T10:28:37.000Z</time>
      </trkpt>
      <trkpt lat="43.92953" lon="4.94387">
        <ele>125.19999694824</ele>
        <time>2025-04-21T10:28:39.000Z</time>
      </trkpt>
      <trkpt lat="43.92954" lon="4.94375">
        <ele>126.59999847412</ele>
        <time>2025-04-21T10:28:42.000Z</time>
      </trkpt>
      <trkpt lat="43.92955" lon="4.94363">
        <ele>127.80000305176</ele>
        <time>2025-04-21T10:28:45.000Z</time>
      </trkpt>
      <trkpt lat="43.92956" lon="4.94359">
        <ele>128.39999389648</ele>
        <time>2025-04-21T10:28:46.000Z</time>
      </trkpt>
      <trkpt lat="43.92957" lon="4.94352">
        <ele>129.19999694824</ele>
        <time>2025-04-21T10:28:48.000Z</time>
      </trkpt>
      <trkpt lat="43.92958" lon="4.94344">
        <ele>130.39999389648</ele>
        <time>2025-04-21T10:28:50.000Z</time>
      </trkpt>
      <trkpt lat="43.9296" lon="4.94335">
        <ele>131.39999389648</ele>
        <time>2025-04-21T10:28:52.000Z</time>
      </trkpt>
      <trkpt lat="43.9296" lon="4.9433">
        <ele>131.39999389648</ele>
        <time>2025-04-21T10:28:53.000Z</time>
      </trkpt>
      <trkpt lat="43.92959" lon="4.94317">
        <ele>132.80000305176</ele>
        <time>2025-04-21T10:28:56.000Z</time>
      </trkpt>
      <trkpt lat="43.92964" lon="4.94296">
        <ele>133.80000305176</ele>
        <time>2025-04-21T10:29:01.000Z</time>
      </trkpt>
      <trkpt lat="43.92963" lon="4.94288">
        <ele>133.80000305176</ele>
        <time>2025-04-21T10:29:03.000Z</time>
      </trkpt>
      <trkpt lat="43.92959" lon="4.94283">
        <ele>133.80000305176</ele>
        <time>2025-04-21T10:29:05.000Z</time>
      </trkpt>
      <trkpt lat="43.92944" lon="4.94269">
        <ele>133.19999694824</ele>
        <time>2025-04-21T10:29:10.000Z</time>
      </trkpt>
      <trkpt lat="43.92936" lon="4.94247">
        <ele>132.80000305176</ele>
        <time>2025-04-21T10:29:15.000Z</time>
      </trkpt>
      <trkpt lat="43.92938" lon="4.94243">
        <ele>133</ele>
        <time>2025-04-21T10:29:16.000Z</time>
      </trkpt>
      <trkpt lat="43.92945" lon="4.9424">
        <ele>133</ele>
        <time>2025-04-21T10:29:18.000Z</time>
      </trkpt>
      <trkpt lat="43.92958" lon="4.94234">
        <ele>134</ele>
        <time>2025-04-21T10:29:22.000Z</time>
      </trkpt>
      <trkpt lat="43.92969" lon="4.94226">
        <ele>134.39999389648</ele>
        <time>2025-04-21T10:29:26.000Z</time>
      </trkpt>
      <trkpt lat="43.92985" lon="4.94214">
        <ele>134.80000305176</ele>
        <time>2025-04-21T10:29:32.000Z</time>
      </trkpt>
      <trkpt lat="43.92995" lon="4.94203">
        <ele>135.19999694824</ele>
        <time>2025-04-21T10:29:38.000Z</time>
      </trkpt>
      <trkpt lat="43.93004" lon="4.94198">
        <ele>135</ele>
        <time>2025-04-21T10:29:44.000Z</time>
      </trkpt>
      <trkpt lat="43.93011" lon="4.94192">
        <ele>135.60000610352</ele>
        <time>2025-04-21T10:30:15.000Z</time>
      </trkpt>
      <trkpt lat="43.93014" lon="4.9419">
        <ele>135.60000610352</ele>
        <time>2025-04-21T10:30:17.000Z</time>
      </trkpt>
      <trkpt lat="43.93021" lon="4.94183">
        <ele>135.39999389648</ele>
        <time>2025-04-21T10:30:22.000Z</time>
      </trkpt>
      <trkpt lat="43.93023" lon="4.9418">
        <ele>135.39999389648</ele>
        <time>2025-04-21T10:30:23.000Z</time>
      </trkpt>
      <trkpt lat="43.93029" lon="4.94167">
        <ele>135.60000610352</ele>
        <time>2025-04-21T10:30:29.000Z</time>
      </trkpt>
      <trkpt lat="43.93035" lon="4.9417">
        <ele>135.60000610352</ele>
        <time>2025-04-21T10:30:33.000Z</time>
      </trkpt>
      <trkpt lat="43.93036" lon="4.94171">
        <ele>135.60000610352</ele>
        <time>2025-04-21T10:30:34.000Z</time>
      </trkpt>
      <trkpt lat="43.93028" lon="4.94149">
        <ele>83</ele>
        <time>2025-04-21T15:48:40.000Z</time>
      </trkpt>
      <trkpt lat="43.93028" lon="4.94159">
        <ele>81.599998474121</ele>
        <time>2025-04-21T15:49:52.000Z</time>
      </trkpt>
      <trkpt lat="43.93028" lon="4.94165">
        <ele>81.599998474121</ele>
        <time>2025-04-21T15:49:54.000Z</time>
      </trkpt>
      <trkpt lat="43.9303" lon="4.9418">
        <ele>81.800003051758</ele>
        <time>2025-04-21T15:50:00.000Z</time>
      </trkpt>
      <trkpt lat="43.93033" lon="4.94197">
        <ele>81.599998474121</ele>
        <time>2025-04-21T15:50:07.000Z</time>
      </trkpt>
      <trkpt lat="43.93033" lon="4.94203">
        <ele>81.400001525879</ele>
        <time>2025-04-21T15:50:10.000Z</time>
      </trkpt>
      <trkpt lat="43.9303" lon="4.94207">
        <ele>81.800003051758</ele>
        <time>2025-04-21T15:50:12.000Z</time>
      </trkpt>
      <trkpt lat="43.93021" lon="4.94223">
        <ele>81.400001525879</ele>
        <time>2025-04-21T15:50:20.000Z</time>
      </trkpt>
      <trkpt lat="43.93021" lon="4.94225">
        <ele>81.400001525879</ele>
        <time>2025-04-21T15:50:21.000Z</time>
      </trkpt>
      <trkpt lat="43.93019" lon="4.94235">
        <ele>81.599998474121</ele>
        <time>2025-04-21T15:50:25.000Z</time>
      </trkpt>
      <trkpt lat="43.93006" lon="4.94254">
        <ele>81.400001525879</ele>
        <time>2025-04-21T15:50:32.000Z</time>
      </trkpt>
      <trkpt lat="43.92996" lon="4.94269">
        <ele>81.400001525879</ele>
        <time>2025-04-21T15:50:37.000Z</time>
      </trkpt>
      <trkpt lat="43.92978" lon="4.94282">
        <ele>81</ele>
        <time>2025-04-21T15:50:44.000Z</time>
      </trkpt>
      <trkpt lat="43.92965" lon="4.94291">
        <ele>81.199996948242</ele>
        <time>2025-04-21T15:50:51.000Z</time>
      </trkpt>
      <trkpt lat="43.9296" lon="4.94309">
        <ele>81.199996948242</ele>
        <time>2025-04-21T15:50:58.000Z</time>
      </trkpt>
      <trkpt lat="43.92961" lon="4.9432">
        <ele>80.400001525879</ele>
        <time>2025-04-21T15:51:01.000Z</time>
      </trkpt>
      <trkpt lat="43.92962" lon="4.94331">
        <ele>79.400001525879</ele>
        <time>2025-04-21T15:51:04.000Z</time>
      </trkpt>
      <trkpt lat="43.92962" lon="4.94335">
        <ele>79</ele>
        <time>2025-04-21T15:51:05.000Z</time>
      </trkpt>
      <trkpt lat="43.92962" lon="4.94343">
        <ele>78</ele>
        <time>2025-04-21T15:51:07.000Z</time>
      </trkpt>
      <trkpt lat="43.92959" lon="4.94354">
        <ele>76.800003051758</ele>
        <time>2025-04-21T15:51:10.000Z</time>
      </trkpt>
      <trkpt lat="43.92957" lon="4.94358">
        <ele>76.400001525879</ele>
        <time>2025-04-21T15:51:11.000Z</time>
      </trkpt>
      <trkpt lat="43.92954" lon="4.94367">
        <ele>75.199996948242</ele>
        <time>2025-04-21T15:51:13.000Z</time>
      </trkpt>
      <trkpt lat="43.92953" lon="4.94378">
        <ele>73.800003051758</ele>
        <time>2025-04-21T15:51:15.000Z</time>
      </trkpt>
      <trkpt lat="43.92951" lon="4.94395">
        <ele>72.599998474121</ele>
        <time>2025-04-21T15:51:18.000Z</time>
      </trkpt>
      <trkpt lat="43.9295" lon="4.94412">
        <ele>71</ele>
        <time>2025-04-21T15:51:21.000Z</time>
      </trkpt>
      <trkpt lat="43.92948" lon="4.94423">
        <ele>69.400001525879</ele>
        <time>2025-04-21T15:51:23.000Z</time>
      </trkpt>
      <trkpt lat="43.92947" lon="4.94436">
        <ele>68.199996948242</ele>
        <time>2025-04-21T15:51:26.000Z</time>
      </trkpt>
      <trkpt lat="43.92945" lon="4.94444">
        <ele>67</ele>
        <time>2025-04-21T15:51:28.000Z</time>
      </trkpt>
      <trkpt lat="43.92942" lon="4.94452">
        <ele>65.800003051758</ele>
        <time>2025-04-21T15:51:30.000Z</time>
      </trkpt>
      <trkpt lat="43.9294" lon="4.9446">
        <ele>64.800003051758</ele>
        <time>2025-04-21T15:51:32.000Z</time>
      </trkpt>
      <trkpt lat="43.9294" lon="4.94465">
        <ele>64.199996948242</ele>
        <time>2025-04-21T15:51:33.000Z</time>
      </trkpt>
      <trkpt lat="43.9294" lon="4.94469">
        <ele>63.400001525879</ele>
        <time>2025-04-21T15:51:34.000Z</time>
      </trkpt>
      <trkpt lat="43.9294" lon="4.94476">
        <ele>62</ele>
        <time>2025-04-21T15:51:36.000Z</time>
      </trkpt>
      <trkpt lat="43.92939" lon="4.94484">
        <ele>60.599998474121</ele>
        <time>2025-04-21T15:51:38.000Z</time>
      </trkpt>
      <trkpt lat="43.92937" lon="4.9449">
        <ele>59.599998474121</ele>
        <time>2025-04-21T15:51:40.000Z</time>
      </trkpt>
      <trkpt lat="43.92934" lon="4.94495">
        <ele>58.400001525879</ele>
        <time>2025-04-21T15:51:42.000Z</time>
      </trkpt>
      <trkpt lat="43.92928" lon="4.94505">
        <ele>57.799999237061</ele>
        <time>2025-04-21T15:51:45.000Z</time>
      </trkpt>
      <trkpt lat="43.92927" lon="4.94508">
        <ele>57.400001525879</ele>
        <time>2025-04-21T15:51:46.000Z</time>
      </trkpt>
      <trkpt lat="43.92928" lon="4.94513">
        <ele>56.799999237061</ele>
        <time>2025-04-21T15:51:48.000Z</time>
      </trkpt>
      <trkpt lat="43.92931" lon="4.94515">
        <ele>56.400001525879</ele>
        <time>2025-04-21T15:51:49.000Z</time>
      </trkpt>
      <trkpt lat="43.92935" lon="4.94518">
        <ele>56.200000762939</ele>
        <time>2025-04-21T15:51:50.000Z</time>
      </trkpt>
      <trkpt lat="43.9295" lon="4.94519">
        <ele>55.599998474121</ele>
        <time>2025-04-21T15:51:54.000Z</time>
      </trkpt>
      <trkpt lat="43.92957" lon="4.94516">
        <ele>55.200000762939</ele>
        <time>2025-04-21T15:51:56.000Z</time>
      </trkpt>
      <trkpt lat="43.92972" lon="4.94507">
        <ele>54.200000762939</ele>
        <time>2025-04-21T15:52:00.000Z</time>
      </trkpt>
      <trkpt lat="43.92975" lon="4.94505">
        <ele>54.200000762939</ele>
        <time>2025-04-21T15:52:01.000Z</time>
      </trkpt>
      <trkpt lat="43.92993" lon="4.94491">
        <ele>52.799999237061</ele>
        <time>2025-04-21T15:52:07.000Z</time>
      </trkpt>
      <trkpt lat="43.93" lon="4.94488">
        <ele>52.200000762939</ele>
        <time>2025-04-21T15:52:09.000Z</time>
      </trkpt>
      <trkpt lat="43.93006" lon="4.94488">
        <ele>51.599998474121</ele>
        <time>2025-04-21T15:52:11.000Z</time>
      </trkpt>
      <trkpt lat="43.93012" lon="4.94494">
        <ele>50.599998474121</ele>
        <time>2025-04-21T15:52:14.000Z</time>
      </trkpt>
      <trkpt lat="43.93016" lon="4.94503">
        <ele>50.400001525879</ele>
        <time>2025-04-21T15:52:15.000Z</time>
      </trkpt>
      <trkpt lat="43.93022" lon="4.94521">
        <ele>49.599998474121</ele>
        <time>2025-04-21T15:52:18.000Z</time>
      </trkpt>
      <trkpt lat="43.93022" lon="4.94526">
        <ele>49.200000762939</ele>
        <time>2025-04-21T15:52:19.000Z</time>
      </trkpt>
      <trkpt lat="43.9302" lon="4.94535">
        <ele>48.599998474121</ele>
        <time>2025-04-21T15:52:21.000Z</time>
      </trkpt>
      <trkpt lat="43.93019" lon="4.94539">
        <ele>48.400001525879</ele>
        <time>2025-04-21T15:52:22.000Z</time>
      </trkpt>
      <trkpt lat="43.93017" lon="4.94543">
        <ele>48.200000762939</ele>
        <time>2025-04-21T15:52:23.000Z</time>
      </trkpt>
      <trkpt lat="43.92999" lon="4.94555">
        <ele>47.200000762939</ele>
        <time>2025-04-21T15:52:27.000Z</time>
      </trkpt>
      <trkpt lat="43.92993" lon="4.94558">
        <ele>47</ele>
        <time>2025-04-21T15:52:28.000Z</time>
      </trkpt>
      <trkpt lat="43.92979" lon="4.94569">
        <ele>45.799999237061</ele>
        <time>2025-04-21T15:52:31.000Z</time>
      </trkpt>
      <trkpt lat="43.92962" lon="4.94581">
        <ele>44.599998474121</ele>
        <time>2025-04-21T15:52:35.000Z</time>
      </trkpt>
      <trkpt lat="43.92951" lon="4.94586">
        <ele>43.599998474121</ele>
        <time>2025-04-21T15:52:38.000Z</time>
      </trkpt>
      <trkpt lat="43.92944" lon="4.94585">
        <ele>43.400001525879</ele>
        <time>2025-04-21T15:52:40.000Z</time>
      </trkpt>
      <trkpt lat="43.92932" lon="4.94582">
        <ele>42.599998474121</ele>
        <time>2025-04-21T15:52:43.000Z</time>
      </trkpt>
      <trkpt lat="43.92928" lon="4.9458">
        <ele>42.200000762939</ele>
        <time>2025-04-21T15:52:44.000Z</time>
      </trkpt>
      <trkpt lat="43.92913" lon="4.94577">
        <ele>41.400001525879</ele>
        <time>2025-04-21T15:52:47.000Z</time>
      </trkpt>
      <trkpt lat="43.92905" lon="4.9458">
        <ele>41</ele>
        <time>2025-04-21T15:52:49.000Z</time>
      </trkpt>
      <trkpt lat="43.92898" lon="4.94589">
        <ele>39.799999237061</ele>
        <time>2025-04-21T15:52:52.000Z</time>
      </trkpt>
      <trkpt lat="43.92896" lon="4.94592">
        <ele>39.599998474121</ele>
        <time>2025-04-21T15:52:53.000Z</time>
      </trkpt>
      <trkpt lat="43.92887" lon="4.94592">
        <ele>39.599998474121</ele>
        <time>2025-04-21T15:52:57.000Z</time>
      </trkpt>
      <trkpt lat="43.92884" lon="4.9459">
        <ele>40.200000762939</ele>
        <time>2025-04-21T15:53:03.000Z</time>
      </trkpt>
      <trkpt lat="43.92892" lon="4.94594">
        <ele>36</ele>
        <time>2025-04-21T15:56:29.000Z</time>
      </trkpt>
      <trkpt lat="43.92898" lon="4.94596">
        <ele>35.599998474121</ele>
        <time>2025-04-21T15:56:32.000Z</time>
      </trkpt>
      <trkpt lat="43.92908" lon="4.94602">
        <ele>34.799999237061</ele>
        <time>2025-04-21T15:56:36.000Z</time>
      </trkpt>
      <trkpt lat="43.92918" lon="4.94607">
        <ele>34.400001525879</ele>
        <time>2025-04-21T15:56:39.000Z</time>
      </trkpt>
      <trkpt lat="43.92924" lon="4.9461">
        <ele>33.799999237061</ele>
        <time>2025-04-21T15:56:41.000Z</time>
      </trkpt>
      <trkpt lat="43.92929" lon="4.94614">
        <ele>33.400001525879</ele>
        <time>2025-04-21T15:56:45.000Z</time>
      </trkpt>
      <trkpt lat="43.92941" lon="4.94618">
        <ele>33</ele>
        <time>2025-04-21T15:56:50.000Z</time>
      </trkpt>
      <trkpt lat="43.92964" lon="4.94615">
        <ele>33</ele>
        <time>2025-04-21T15:56:58.000Z</time>
      </trkpt>
      <trkpt lat="43.92985" lon="4.94607">
        <ele>32.599998474121</ele>
        <time>2025-04-21T15:57:03.000Z</time>
      </trkpt>
      <trkpt lat="43.92998" lon="4.94603">
        <ele>32.200000762939</ele>
        <time>2025-04-21T15:57:06.000Z</time>
      </trkpt>
      <trkpt lat="43.9302" lon="4.94608">
        <ele>31.39999961853</ele>
        <time>2025-04-21T15:57:11.000Z</time>
      </trkpt>
      <trkpt lat="43.93039" lon="4.94612">
        <ele>30.39999961853</ele>
        <time>2025-04-21T15:57:15.000Z</time>
      </trkpt>
      <trkpt lat="43.9306" lon="4.94616">
        <ele>29.200000762939</ele>
        <time>2025-04-21T15:57:19.000Z</time>
      </trkpt>
      <trkpt lat="43.9308" lon="4.94622">
        <ele>28</ele>
        <time>2025-04-21T15:57:23.000Z</time>
      </trkpt>
      <trkpt lat="43.93094" lon="4.9463">
        <ele>26.799999237061</ele>
        <time>2025-04-21T15:57:26.000Z</time>
      </trkpt>
      <trkpt lat="43.9311" lon="4.94644">
        <ele>25.60000038147</ele>
        <time>2025-04-21T15:57:30.000Z</time>
      </trkpt>
      <trkpt lat="43.93116" lon="4.94651">
        <ele>25</ele>
        <time>2025-04-21T15:57:32.000Z</time>
      </trkpt>
      <trkpt lat="43.93122" lon="4.94653">
        <ele>24.799999237061</ele>
        <time>2025-04-21T15:57:34.000Z</time>
      </trkpt>
      <trkpt lat="43.93125" lon="4.94651">
        <ele>24.799999237061</ele>
        <time>2025-04-21T15:57:35.000Z</time>
      </trkpt>
      <trkpt lat="43.93131" lon="4.94645">
        <ele>25.200000762939</ele>
        <time>2025-04-21T15:57:38.000Z</time>
      </trkpt>
      <trkpt lat="43.93141" lon="4.94642">
        <ele>25.39999961853</ele>
        <time>2025-04-21T15:57:41.000Z</time>
      </trkpt>
      <trkpt lat="43.93152" lon="4.9464">
        <ele>25.200000762939</ele>
        <time>2025-04-21T15:57:44.000Z</time>
      </trkpt>
      <trkpt lat="43.93184" lon="4.94629">
        <ele>24.799999237061</ele>
        <time>2025-04-21T15:57:51.000Z</time>
      </trkpt>
      <trkpt lat="43.93189" lon="4.94627">
        <ele>24.60000038147</ele>
        <time>2025-04-21T15:57:52.000Z</time>
      </trkpt>
      <trkpt lat="43.93226" lon="4.94607">
        <ele>24.39999961853</ele>
        <time>2025-04-21T15:57:59.000Z</time>
      </trkpt>
      <trkpt lat="43.93264" lon="4.94585">
        <ele>23.60000038147</ele>
        <time>2025-04-21T15:58:07.000Z</time>
      </trkpt>
      <trkpt lat="43.93269" lon="4.94582">
        <ele>23.200000762939</ele>
        <time>2025-04-21T15:58:08.000Z</time>
      </trkpt>
      <trkpt lat="43.93315" lon="4.94554">
        <ele>22.39999961853</ele>
        <time>2025-04-21T15:58:17.000Z</time>
      </trkpt>
      <trkpt lat="43.9332" lon="4.94551">
        <ele>22.200000762939</ele>
        <time>2025-04-21T15:58:18.000Z</time>
      </trkpt>
      <trkpt lat="43.93366" lon="4.94523">
        <ele>22.200000762939</ele>
        <time>2025-04-21T15:58:28.000Z</time>
      </trkpt>
      <trkpt lat="43.93388" lon="4.94512">
        <ele>21.39999961853</ele>
        <time>2025-04-21T15:58:34.000Z</time>
      </trkpt>
      <trkpt lat="43.93391" lon="4.94509">
        <ele>21.39999961853</ele>
        <time>2025-04-21T15:58:35.000Z</time>
      </trkpt>
      <trkpt lat="43.93419" lon="4.94497">
        <ele>21</ele>
        <time>2025-04-21T15:58:43.000Z</time>
      </trkpt>
      <trkpt lat="43.93445" lon="4.94483">
        <ele>20.60000038147</ele>
        <time>2025-04-21T15:58:52.000Z</time>
      </trkpt>
      <trkpt lat="43.93455" lon="4.94476">
        <ele>20.39999961853</ele>
        <time>2025-04-21T15:59:07.000Z</time>
      </trkpt>
      <trkpt lat="43.93458" lon="4.94474">
        <ele>20.39999961853</ele>
        <time>2025-04-21T15:59:08.000Z</time>
      </trkpt>
      <trkpt lat="43.93483" lon="4.94463">
        <ele>20.39999961853</ele>
        <time>2025-04-21T15:59:15.000Z</time>
      </trkpt>
      <trkpt lat="43.93527" lon="4.94448">
        <ele>20.39999961853</ele>
        <time>2025-04-21T15:59:26.000Z</time>
      </trkpt>
      <trkpt lat="43.93563" lon="4.94431">
        <ele>20.60000038147</ele>
        <time>2025-04-21T15:59:35.000Z</time>
      </trkpt>
      <trkpt lat="43.93592" lon="4.94415">
        <ele>21</ele>
        <time>2025-04-21T15:59:42.000Z</time>
      </trkpt>
      <trkpt lat="43.93635" lon="4.94393">
        <ele>21</ele>
        <time>2025-04-21T15:59:52.000Z</time>
      </trkpt>
      <trkpt lat="43.93661" lon="4.94377">
        <ele>21.39999961853</ele>
        <time>2025-04-21T15:59:58.000Z</time>
      </trkpt>
      <trkpt lat="43.93674" lon="4.94372">
        <ele>21.799999237061</ele>
        <time>2025-04-21T16:00:01.000Z</time>
      </trkpt>
      <trkpt lat="43.93692" lon="4.94363">
        <ele>22.799999237061</ele>
        <time>2025-04-21T16:00:06.000Z</time>
      </trkpt>
      <trkpt lat="43.93705" lon="4.94358">
        <ele>23.39999961853</ele>
        <time>2025-04-21T16:00:09.000Z</time>
      </trkpt>
      <trkpt lat="43.93717" lon="4.94353">
        <ele>24.39999961853</ele>
        <time>2025-04-21T16:00:12.000Z</time>
      </trkpt>
      <trkpt lat="43.93727" lon="4.94348">
        <ele>25.39999961853</ele>
        <time>2025-04-21T16:00:15.000Z</time>
      </trkpt>
      <trkpt lat="43.93745" lon="4.94341">
        <ele>26.200000762939</ele>
        <time>2025-04-21T16:00:20.000Z</time>
      </trkpt>
      <trkpt lat="43.93766" lon="4.94331">
        <ele>26.39999961853</ele>
        <time>2025-04-21T16:00:25.000Z</time>
      </trkpt>
      <trkpt lat="43.93774" lon="4.94327">
        <ele>26.60000038147</ele>
        <time>2025-04-21T16:00:27.000Z</time>
      </trkpt>
      <trkpt lat="43.93811" lon="4.94305">
        <ele>27.200000762939</ele>
        <time>2025-04-21T16:00:36.000Z</time>
      </trkpt>
      <trkpt lat="43.93827" lon="4.94293">
        <ele>27.60000038147</ele>
        <time>2025-04-21T16:00:40.000Z</time>
      </trkpt>
      <trkpt lat="43.93844" lon="4.94282">
        <ele>27.799999237061</ele>
        <time>2025-04-21T16:00:44.000Z</time>
      </trkpt>
      <trkpt lat="43.93867" lon="4.94265">
        <ele>28.200000762939</ele>
        <time>2025-04-21T16:00:50.000Z</time>
      </trkpt>
      <trkpt lat="43.9387" lon="4.94261">
        <ele>28.39999961853</ele>
        <time>2025-04-21T16:00:51.000Z</time>
      </trkpt>
      <trkpt lat="43.93876" lon="4.94252">
        <ele>28.799999237061</ele>
        <time>2025-04-21T16:00:53.000Z</time>
      </trkpt>
      <trkpt lat="43.93894" lon="4.94224">
        <ele>29</ele>
        <time>2025-04-21T16:00:59.000Z</time>
      </trkpt>
      <trkpt lat="43.93903" lon="4.94212">
        <ele>29.799999237061</ele>
        <time>2025-04-21T16:01:02.000Z</time>
      </trkpt>
      <trkpt lat="43.93927" lon="4.94176">
        <ele>30.39999961853</ele>
        <time>2025-04-21T16:01:10.000Z</time>
      </trkpt>
      <trkpt lat="43.93932" lon="4.94167">
        <ele>30.799999237061</ele>
        <time>2025-04-21T16:01:12.000Z</time>
      </trkpt>
      <trkpt lat="43.93951" lon="4.94139">
        <ele>30.799999237061</ele>
        <time>2025-04-21T16:01:18.000Z</time>
      </trkpt>
      <trkpt lat="43.93977" lon="4.94116">
        <ele>30.60000038147</ele>
        <time>2025-04-21T16:01:24.000Z</time>
      </trkpt>
      <trkpt lat="43.93997" lon="4.94103">
        <ele>29.799999237061</ele>
        <time>2025-04-21T16:01:28.000Z</time>
      </trkpt>
      <trkpt lat="43.94014" lon="4.94093">
        <ele>29.200000762939</ele>
        <time>2025-04-21T16:01:31.000Z</time>
      </trkpt>
      <trkpt lat="43.94021" lon="4.9409">
        <ele>28.799999237061</ele>
        <time>2025-04-21T16:01:32.000Z</time>
      </trkpt>
      <trkpt lat="43.94053" lon="4.94076">
        <ele>27.799999237061</ele>
        <time>2025-04-21T16:01:37.000Z</time>
      </trkpt>
      <trkpt lat="43.94092" lon="4.9406">
        <ele>27</ele>
        <time>2025-04-21T16:01:43.000Z</time>
      </trkpt>
      <trkpt lat="43.94099" lon="4.94059">
        <ele>27</ele>
        <time>2025-04-21T16:01:44.000Z</time>
      </trkpt>
      <trkpt lat="43.94143" lon="4.94052">
        <ele>27</ele>
        <time>2025-04-21T16:01:52.000Z</time>
      </trkpt>
      <trkpt lat="43.94177" lon="4.94038">
        <ele>27.39999961853</ele>
        <time>2025-04-21T16:01:59.000Z</time>
      </trkpt>
      <trkpt lat="43.94181" lon="4.94035">
        <ele>27.39999961853</ele>
        <time>2025-04-21T16:02:00.000Z</time>
      </trkpt>
      <trkpt lat="43.94218" lon="4.94005">
        <ele>27.39999961853</ele>
        <time>2025-04-21T16:02:08.000Z</time>
      </trkpt>
      <trkpt lat="43.94256" lon="4.93974">
        <ele>26.799999237061</ele>
        <time>2025-04-21T16:02:16.000Z</time>
      </trkpt>
      <trkpt lat="43.94275" lon="4.93958">
        <ele>26.60000038147</ele>
        <time>2025-04-21T16:02:20.000Z</time>
      </trkpt>
      <trkpt lat="43.94299" lon="4.93938">
        <ele>26.39999961853</ele>
        <time>2025-04-21T16:02:25.000Z</time>
      </trkpt>
      <trkpt lat="43.94341" lon="4.93908">
        <ele>25.60000038147</ele>
        <time>2025-04-21T16:02:33.000Z</time>
      </trkpt>
      <trkpt lat="43.94347" lon="4.93905">
        <ele>25.60000038147</ele>
        <time>2025-04-21T16:02:34.000Z</time>
      </trkpt>
      <trkpt lat="43.94385" lon="4.93881">
        <ele>24.60000038147</ele>
        <time>2025-04-21T16:02:41.000Z</time>
      </trkpt>
      <trkpt lat="43.9439" lon="4.93877">
        <ele>24.60000038147</ele>
        <time>2025-04-21T16:02:42.000Z</time>
      </trkpt>
      <trkpt lat="43.94414" lon="4.93861">
        <ele>23.799999237061</ele>
        <time>2025-04-21T16:02:47.000Z</time>
      </trkpt>
      <trkpt lat="43.94424" lon="4.93858">
        <ele>23.39999961853</ele>
        <time>2025-04-21T16:02:49.000Z</time>
      </trkpt>
      <trkpt lat="43.94433" lon="4.93853">
        <ele>23.39999961853</ele>
        <time>2025-04-21T16:02:51.000Z</time>
      </trkpt>
      <trkpt lat="43.94437" lon="4.93851">
        <ele>23.200000762939</ele>
        <time>2025-04-21T16:02:52.000Z</time>
      </trkpt>
      <trkpt lat="43.94449" lon="4.93844">
        <ele>22.799999237061</ele>
        <time>2025-04-21T16:02:57.000Z</time>
      </trkpt>
      <trkpt lat="43.94458" lon="4.93837">
        <ele>22.60000038147</ele>
        <time>2025-04-21T16:03:01.000Z</time>
      </trkpt>
      <trkpt lat="43.94465" lon="4.93831">
        <ele>22.39999961853</ele>
        <time>2025-04-21T16:03:03.000Z</time>
      </trkpt>
      <trkpt lat="43.94494" lon="4.93801">
        <ele>22</ele>
        <time>2025-04-21T16:03:10.000Z</time>
      </trkpt>
      <trkpt lat="43.94526" lon="4.9376">
        <ele>22.200000762939</ele>
        <time>2025-04-21T16:03:18.000Z</time>
      </trkpt>
      <trkpt lat="43.94561" lon="4.93716">
        <ele>22.799999237061</ele>
        <time>2025-04-21T16:03:27.000Z</time>
      </trkpt>
      <trkpt lat="43.94568" lon="4.93706">
        <ele>22.799999237061</ele>
        <time>2025-04-21T16:03:29.000Z</time>
      </trkpt>
      <trkpt lat="43.94576" lon="4.93696">
        <ele>22.799999237061</ele>
        <time>2025-04-21T16:03:31.000Z</time>
      </trkpt>
      <trkpt lat="43.94583" lon="4.93686">
        <ele>23</ele>
        <time>2025-04-21T16:03:33.000Z</time>
      </trkpt>
      <trkpt lat="43.94613" lon="4.93642">
        <ele>22.60000038147</ele>
        <time>2025-04-21T16:03:42.000Z</time>
      </trkpt>
      <trkpt lat="43.94618" lon="4.93638">
        <ele>22.39999961853</ele>
        <time>2025-04-21T16:03:43.000Z</time>
      </trkpt>
      <trkpt lat="43.94637" lon="4.93626">
        <ele>22.39999961853</ele>
        <time>2025-04-21T16:03:47.000Z</time>
      </trkpt>
      <trkpt lat="43.94674" lon="4.93603">
        <ele>21.60000038147</ele>
        <time>2025-04-21T16:03:55.000Z</time>
      </trkpt>
      <trkpt lat="43.94692" lon="4.93593">
        <ele>21.200000762939</ele>
        <time>2025-04-21T16:03:59.000Z</time>
      </trkpt>
      <trkpt lat="43.94713" lon="4.93581">
        <ele>20.200000762939</ele>
        <time>2025-04-21T16:04:04.000Z</time>
      </trkpt>
      <trkpt lat="43.94719" lon="4.93576">
        <ele>20</ele>
        <time>2025-04-21T16:04:06.000Z</time>
      </trkpt>
      <trkpt lat="43.94729" lon="4.9357">
        <ele>19.60000038147</ele>
        <time>2025-04-21T16:04:09.000Z</time>
      </trkpt>
      <trkpt lat="43.94742" lon="4.93562">
        <ele>18.799999237061</ele>
        <time>2025-04-21T16:04:12.000Z</time>
      </trkpt>
      <trkpt lat="43.94764" lon="4.9355">
        <ele>17.60000038147</ele>
        <time>2025-04-21T16:04:17.000Z</time>
      </trkpt>
      <trkpt lat="43.94781" lon="4.93543">
        <ele>16.60000038147</ele>
        <time>2025-04-21T16:04:22.000Z</time>
      </trkpt>
      <trkpt lat="43.94784" lon="4.93544">
        <ele>16.39999961853</ele>
        <time>2025-04-21T16:04:23.000Z</time>
      </trkpt>
      <trkpt lat="43.94787" lon="4.93551">
        <ele>16.200000762939</ele>
        <time>2025-04-21T16:04:25.000Z</time>
      </trkpt>
      <trkpt lat="43.9479" lon="4.9356">
        <ele>15.60000038147</ele>
        <time>2025-04-21T16:04:27.000Z</time>
      </trkpt>
      <trkpt lat="43.94796" lon="4.93577">
        <ele>15.199999809265</ele>
        <time>2025-04-21T16:04:30.000Z</time>
      </trkpt>
      <trkpt lat="43.94801" lon="4.93594">
        <ele>14.39999961853</ele>
        <time>2025-04-21T16:04:33.000Z</time>
      </trkpt>
      <trkpt lat="43.94809" lon="4.93616">
        <ele>13.199999809265</ele>
        <time>2025-04-21T16:04:37.000Z</time>
      </trkpt>
      <trkpt lat="43.94811" lon="4.93624">
        <ele>12.800000190735</ele>
        <time>2025-04-21T16:04:39.000Z</time>
      </trkpt>
      <trkpt lat="43.94819" lon="4.93647">
        <ele>12</ele>
        <time>2025-04-21T16:04:44.000Z</time>
      </trkpt>
      <trkpt lat="43.94822" lon="4.93658">
        <ele>11.800000190735</ele>
        <time>2025-04-21T16:04:46.000Z</time>
      </trkpt>
      <trkpt lat="43.9483" lon="4.9368">
        <ele>11</ele>
        <time>2025-04-21T16:04:50.000Z</time>
      </trkpt>
      <trkpt lat="43.94838" lon="4.93704">
        <ele>10.199999809265</ele>
        <time>2025-04-21T16:04:54.000Z</time>
      </trkpt>
      <trkpt lat="43.94841" lon="4.9371">
        <ele>10</ele>
        <time>2025-04-21T16:04:55.000Z</time>
      </trkpt>
      <trkpt lat="43.94857" lon="4.93757">
        <ele>8.6000003814697</ele>
        <time>2025-04-21T16:05:02.000Z</time>
      </trkpt>
      <trkpt lat="43.9486" lon="4.93764">
        <ele>8.3999996185303</ele>
        <time>2025-04-21T16:05:03.000Z</time>
      </trkpt>
      <trkpt lat="43.94873" lon="4.938">
        <ele>7.5999999046326</ele>
        <time>2025-04-21T16:05:08.000Z</time>
      </trkpt>
      <trkpt lat="43.94881" lon="4.9382">
        <ele>7.1999998092651</ele>
        <time>2025-04-21T16:05:11.000Z</time>
      </trkpt>
      <trkpt lat="43.94891" lon="4.93848">
        <ele>6.4000000953674</ele>
        <time>2025-04-21T16:05:15.000Z</time>
      </trkpt>
      <trkpt lat="43.949" lon="4.93872">
        <ele>5.4000000953674</ele>
        <time>2025-04-21T16:05:19.000Z</time>
      </trkpt>
      <trkpt lat="43.94915" lon="4.93905">
        <ele>4.4000000953674</ele>
        <time>2025-04-21T16:05:25.000Z</time>
      </trkpt>
      <trkpt lat="43.94917" lon="4.93911">
        <ele>4.1999998092651</ele>
        <time>2025-04-21T16:05:26.000Z</time>
      </trkpt>
      <trkpt lat="43.94925" lon="4.93929">
        <ele>4.1999998092651</ele>
        <time>2025-04-21T16:05:29.000Z</time>
      </trkpt>
      <trkpt lat="43.94933" lon="4.93954">
        <ele>3.5999999046326</ele>
        <time>2025-04-21T16:05:33.000Z</time>
      </trkpt>
      <trkpt lat="43.94939" lon="4.93967">
        <ele>3.2000000476837</ele>
        <time>2025-04-21T16:05:35.000Z</time>
      </trkpt>
      <trkpt lat="43.94951" lon="4.93982">
        <ele>2.7999999523163</ele>
        <time>2025-04-21T16:05:38.000Z</time>
      </trkpt>
      <trkpt lat="43.94956" lon="4.93987">
        <ele>2.5999999046326</ele>
        <time>2025-04-21T16:05:39.000Z</time>
      </trkpt>
      <trkpt lat="43.9496" lon="4.93993">
        <ele>2.4000000953674</ele>
        <time>2025-04-21T16:05:40.000Z</time>
      </trkpt>
      <trkpt lat="43.94964" lon="4.94">
        <ele>2</ele>
        <time>2025-04-21T16:05:41.000Z</time>
      </trkpt>
      <trkpt lat="43.94971" lon="4.94014">
        <ele>1.6000000238419</ele>
        <time>2025-04-21T16:05:43.000Z</time>
      </trkpt>
      <trkpt lat="43.94983" lon="4.94036">
        <ele>1</ele>
        <time>2025-04-21T16:05:46.000Z</time>
      </trkpt>
      <trkpt lat="43.94997" lon="4.94075">
        <ele>0.60000002384186</ele>
        <time>2025-04-21T16:05:51.000Z</time>
      </trkpt>
      <trkpt lat="43.95004" lon="4.941">
        <ele>-0.20000000298023</ele>
        <time>2025-04-21T16:05:54.000Z</time>
      </trkpt>
      <trkpt lat="43.95013" lon="4.94141">
        <ele>-0.20000000298023</ele>
        <time>2025-04-21T16:05:59.000Z</time>
      </trkpt>
      <trkpt lat="43.95028" lon="4.9421">
        <ele>-0.60000002384186</ele>
        <time>2025-04-21T16:06:08.000Z</time>
      </trkpt>
      <trkpt lat="43.95042" lon="4.94273">
        <ele>-1.2000000476837</ele>
        <time>2025-04-21T16:06:16.000Z</time>
      </trkpt>
      <trkpt lat="43.95044" lon="4.94281">
        <ele>-1.2000000476837</ele>
        <time>2025-04-21T16:06:17.000Z</time>
      </trkpt>
      <trkpt lat="43.95052" lon="4.94304">
        <ele>-1</ele>
        <time>2025-04-21T16:06:20.000Z</time>
      </trkpt>
      <trkpt lat="43.95063" lon="4.94322">
        <ele>-1.3999999761581</ele>
        <time>2025-04-21T16:06:23.000Z</time>
      </trkpt>
      <trkpt lat="43.95073" lon="4.94331">
        <ele>-1.6000000238419</ele>
        <time>2025-04-21T16:06:25.000Z</time>
      </trkpt>
      <trkpt lat="43.95088" lon="4.9434">
        <ele>-1.7999999523163</ele>
        <time>2025-04-21T16:06:28.000Z</time>
      </trkpt>
      <trkpt lat="43.95119" lon="4.94343">
        <ele>-1.6000000238419</ele>
        <time>2025-04-21T16:06:33.000Z</time>
      </trkpt>
      <trkpt lat="43.95166" lon="4.94332">
        <ele>-2.2000000476837</ele>
        <time>2025-04-21T16:06:41.000Z</time>
      </trkpt>
      <trkpt lat="43.95172" lon="4.9433">
        <ele>-2.2000000476837</ele>
        <time>2025-04-21T16:06:42.000Z</time>
      </trkpt>
      <trkpt lat="43.95212" lon="4.94312">
        <ele>-2</ele>
        <time>2025-04-21T16:06:49.000Z</time>
      </trkpt>
      <trkpt lat="43.95233" lon="4.94298">
        <ele>-2.2000000476837</ele>
        <time>2025-04-21T16:06:55.000Z</time>
      </trkpt>
      <trkpt lat="43.95246" lon="4.94302">
        <ele>-2.2000000476837</ele>
        <time>2025-04-21T16:07:00.000Z</time>
      </trkpt>
      <trkpt lat="43.95252" lon="4.94311">
        <ele>-2.2000000476837</ele>
        <time>2025-04-21T16:07:02.000Z</time>
      </trkpt>
      <trkpt lat="43.95256" lon="4.94322">
        <ele>-2.2000000476837</ele>
        <time>2025-04-21T16:07:04.000Z</time>
      </trkpt>
      <trkpt lat="43.95259" lon="4.94335">
        <ele>-2</ele>
        <time>2025-04-21T16:07:06.000Z</time>
      </trkpt>
      <trkpt lat="43.95268" lon="4.94368">
        <ele>-2</ele>
        <time>2025-04-21T16:07:11.000Z</time>
      </trkpt>
      <trkpt lat="43.95287" lon="4.94439">
        <ele>-2.4000000953674</ele>
        <time>2025-04-21T16:07:21.000Z</time>
      </trkpt>
      <trkpt lat="43.95307" lon="4.94512">
        <ele>-2.7999999523163</ele>
        <time>2025-04-21T16:07:31.000Z</time>
      </trkpt>
      <trkpt lat="43.95311" lon="4.94524">
        <ele>-2.5999999046326</ele>
        <time>2025-04-21T16:07:33.000Z</time>
      </trkpt>
      <trkpt lat="43.95315" lon="4.94541">
        <ele>-2.7999999523163</ele>
        <time>2025-04-21T16:07:36.000Z</time>
      </trkpt>
      <trkpt lat="43.95316" lon="4.94554">
        <ele>-3</ele>
        <time>2025-04-21T16:07:38.000Z</time>
      </trkpt>
      <trkpt lat="43.95323" lon="4.94613">
        <ele>-3</ele>
        <time>2025-04-21T16:07:46.000Z</time>
      </trkpt>
      <trkpt lat="43.95326" lon="4.94635">
        <ele>-3.2000000476837</ele>
        <time>2025-04-21T16:07:49.000Z</time>
      </trkpt>
      <trkpt lat="43.95333" lon="4.94685">
        <ele>-3.4000000953674</ele>
        <time>2025-04-21T16:07:56.000Z</time>
      </trkpt>
      <trkpt lat="43.95341" lon="4.9473">
        <ele>-4.1999998092651</ele>
        <time>2025-04-21T16:08:02.000Z</time>
      </trkpt>
      <trkpt lat="43.95343" lon="4.94744">
        <ele>-4</ele>
        <time>2025-04-21T16:08:04.000Z</time>
      </trkpt>
      <trkpt lat="43.95351" lon="4.94788">
        <ele>-4.4000000953674</ele>
        <time>2025-04-21T16:08:10.000Z</time>
      </trkpt>
      <trkpt lat="43.95355" lon="4.94822">
        <ele>-4.1999998092651</ele>
        <time>2025-04-21T16:08:15.000Z</time>
      </trkpt>
      <trkpt lat="43.95363" lon="4.94874">
        <ele>-5</ele>
        <time>2025-04-21T16:08:24.000Z</time>
      </trkpt>
      <trkpt lat="43.95363" lon="4.94886">
        <ele>-5</ele>
        <time>2025-04-21T16:08:26.000Z</time>
      </trkpt>
      <trkpt lat="43.95359" lon="4.94897">
        <ele>-5</ele>
        <time>2025-04-21T16:08:28.000Z</time>
      </trkpt>
      <trkpt lat="43.95351" lon="4.94913">
        <ele>-5</ele>
        <time>2025-04-21T16:08:31.000Z</time>
      </trkpt>
      <trkpt lat="43.95342" lon="4.9493">
        <ele>-5</ele>
        <time>2025-04-21T16:08:34.000Z</time>
      </trkpt>
      <trkpt lat="43.95318" lon="4.94974">
        <ele>-5.1999998092651</ele>
        <time>2025-04-21T16:08:42.000Z</time>
      </trkpt>
      <trkpt lat="43.95284" lon="4.95025">
        <ele>-5</ele>
        <time>2025-04-21T16:08:52.000Z</time>
      </trkpt>
      <trkpt lat="43.95237" lon="4.95071">
        <ele>-5.4000000953674</ele>
        <time>2025-04-21T16:09:03.000Z</time>
      </trkpt>
      <trkpt lat="43.95204" lon="4.95105">
        <ele>-5.1999998092651</ele>
        <time>2025-04-21T16:09:11.000Z</time>
      </trkpt>
      <trkpt lat="43.95198" lon="4.95117">
        <ele>-5</ele>
        <time>2025-04-21T16:09:13.000Z</time>
      </trkpt>
      <trkpt lat="43.95197" lon="4.95138">
        <ele>-5</ele>
        <time>2025-04-21T16:09:16.000Z</time>
      </trkpt>
      <trkpt lat="43.95202" lon="4.95158">
        <ele>-5.1999998092651</ele>
        <time>2025-04-21T16:09:19.000Z</time>
      </trkpt>
      <trkpt lat="43.95206" lon="4.95172">
        <ele>-5</ele>
        <time>2025-04-21T16:09:21.000Z</time>
      </trkpt>
      <trkpt lat="43.95219" lon="4.95233">
        <ele>-4.5999999046326</ele>
        <time>2025-04-21T16:09:30.000Z</time>
      </trkpt>
      <trkpt lat="43.95219" lon="4.9524">
        <ele>-4.8000001907349</ele>
        <time>2025-04-21T16:09:31.000Z</time>
      </trkpt>
      <trkpt lat="43.95209" lon="4.95265">
        <ele>-4.8000001907349</ele>
        <time>2025-04-21T16:09:35.000Z</time>
      </trkpt>
      <trkpt lat="43.95192" lon="4.95284">
        <ele>-4.5999999046326</ele>
        <time>2025-04-21T16:09:39.000Z</time>
      </trkpt>
      <trkpt lat="43.95188" lon="4.95288">
        <ele>-4.4000000953674</ele>
        <time>2025-04-21T16:09:40.000Z</time>
      </trkpt>
      <trkpt lat="43.95172" lon="4.95306">
        <ele>-4.8000001907349</ele>
        <time>2025-04-21T16:09:44.000Z</time>
      </trkpt>
      <trkpt lat="43.95167" lon="4.95319">
        <ele>-4.5999999046326</ele>
        <time>2025-04-21T16:09:46.000Z</time>
      </trkpt>
      <trkpt lat="43.95169" lon="4.95345">
        <ele>-4.5999999046326</ele>
        <time>2025-04-21T16:09:50.000Z</time>
      </trkpt>
      <trkpt lat="43.95173" lon="4.95358">
        <ele>-4.5999999046326</ele>
        <time>2025-04-21T16:09:52.000Z</time>
      </trkpt>
      <trkpt lat="43.95184" lon="4.95389">
        <ele>-4.5999999046326</ele>
        <time>2025-04-21T16:09:57.000Z</time>
      </trkpt>
      <trkpt lat="43.95193" lon="4.95422">
        <ele>-4.4000000953674</ele>
        <time>2025-04-21T16:10:02.000Z</time>
      </trkpt>
      <trkpt lat="43.95194" lon="4.95437">
        <ele>-4.5999999046326</ele>
        <time>2025-04-21T16:10:04.000Z</time>
      </trkpt>
      <trkpt lat="43.95189" lon="4.9546">
        <ele>-4.5999999046326</ele>
        <time>2025-04-21T16:10:08.000Z</time>
      </trkpt>
      <trkpt lat="43.9517" lon="4.95471">
        <ele>-4.1999998092651</ele>
        <time>2025-04-21T16:10:12.000Z</time>
      </trkpt>
      <trkpt lat="43.95164" lon="4.95474">
        <ele>-4.5999999046326</ele>
        <time>2025-04-21T16:10:13.000Z</time>
      </trkpt>
      <trkpt lat="43.95119" lon="4.95495">
        <ele>-4.5999999046326</ele>
        <time>2025-04-21T16:10:21.000Z</time>
      </trkpt>
      <trkpt lat="43.95115" lon="4.955">
        <ele>-4.5999999046326</ele>
        <time>2025-04-21T16:10:22.000Z</time>
      </trkpt>
      <trkpt lat="43.95107" lon="4.95526">
        <ele>-4.4000000953674</ele>
        <time>2025-04-21T16:10:26.000Z</time>
      </trkpt>
      <trkpt lat="43.9511" lon="4.95546">
        <ele>-4.1999998092651</ele>
        <time>2025-04-21T16:10:29.000Z</time>
      </trkpt>
      <trkpt lat="43.95111" lon="4.95553">
        <ele>-4.1999998092651</ele>
        <time>2025-04-21T16:10:30.000Z</time>
      </trkpt>
      <trkpt lat="43.95126" lon="4.95629">
        <ele>-4.1999998092651</ele>
        <time>2025-04-21T16:10:41.000Z</time>
      </trkpt>
      <trkpt lat="43.95117" lon="4.95647">
        <ele>-4.5999999046326</ele>
        <time>2025-04-21T16:10:45.000Z</time>
      </trkpt>
      <trkpt lat="43.95096" lon="4.95653">
        <ele>-4.1999998092651</ele>
        <time>2025-04-21T16:10:49.000Z</time>
      </trkpt>
      <trkpt lat="43.95039" lon="4.95666">
        <ele>-4.1999998092651</ele>
        <time>2025-04-21T16:11:00.000Z</time>
      </trkpt>
      <trkpt lat="43.95034" lon="4.95668">
        <ele>-4</ele>
        <time>2025-04-21T16:11:01.000Z</time>
      </trkpt>
      <trkpt lat="43.9502" lon="4.95674">
        <ele>-4.4000000953674</ele>
        <time>2025-04-21T16:11:04.000Z</time>
      </trkpt>
      <trkpt lat="43.95013" lon="4.95685">
        <ele>-4.1999998092651</ele>
        <time>2025-04-21T16:11:06.000Z</time>
      </trkpt>
      <trkpt lat="43.95012" lon="4.95705">
        <ele>-4.1999998092651</ele>
        <time>2025-04-21T16:11:09.000Z</time>
      </trkpt>
      <trkpt lat="43.9502" lon="4.95732">
        <ele>-4.1999998092651</ele>
        <time>2025-04-21T16:11:13.000Z</time>
      </trkpt>
      <trkpt lat="43.95022" lon="4.95739">
        <ele>-4</ele>
        <time>2025-04-21T16:11:14.000Z</time>
      </trkpt>
      <trkpt lat="43.95047" lon="4.95806">
        <ele>-4.4000000953674</ele>
        <time>2025-04-21T16:11:24.000Z</time>
      </trkpt>
      <trkpt lat="43.95049" lon="4.95821">
        <ele>-4.1999998092651</ele>
        <time>2025-04-21T16:11:26.000Z</time>
      </trkpt>
      <trkpt lat="43.95047" lon="4.95836">
        <ele>-4.4000000953674</ele>
        <time>2025-04-21T16:11:28.000Z</time>
      </trkpt>
      <trkpt lat="43.95044" lon="4.95849">
        <ele>-4.1999998092651</ele>
        <time>2025-04-21T16:11:30.000Z</time>
      </trkpt>
      <trkpt lat="43.9504" lon="4.95868">
        <ele>-4</ele>
        <time>2025-04-21T16:11:33.000Z</time>
      </trkpt>
      <trkpt lat="43.9504" lon="4.95875">
        <ele>-4</ele>
        <time>2025-04-21T16:11:34.000Z</time>
      </trkpt>
      <trkpt lat="43.95042" lon="4.95902">
        <ele>-3.7999999523163</ele>
        <time>2025-04-21T16:11:38.000Z</time>
      </trkpt>
      <trkpt lat="43.95055" lon="4.95955">
        <ele>-3.7999999523163</ele>
        <time>2025-04-21T16:11:46.000Z</time>
      </trkpt>
      <trkpt lat="43.95058" lon="4.9596">
        <ele>-4</ele>
        <time>2025-04-21T16:11:47.000Z</time>
      </trkpt>
      <trkpt lat="43.95074" lon="4.95978">
        <ele>-3.7999999523163</ele>
        <time>2025-04-21T16:11:51.000Z</time>
      </trkpt>
      <trkpt lat="43.95077" lon="4.95984">
        <ele>-3.7999999523163</ele>
        <time>2025-04-21T16:11:52.000Z</time>
      </trkpt>
      <trkpt lat="43.95094" lon="4.9602">
        <ele>-4</ele>
        <time>2025-04-21T16:11:58.000Z</time>
      </trkpt>
      <trkpt lat="43.95118" lon="4.96055">
        <ele>-3.2000000476837</ele>
        <time>2025-04-21T16:12:05.000Z</time>
      </trkpt>
      <trkpt lat="43.95134" lon="4.96076">
        <ele>-3.4000000953674</ele>
        <time>2025-04-21T16:12:10.000Z</time>
      </trkpt>
      <trkpt lat="43.95136" lon="4.96082">
        <ele>-3.5999999046326</ele>
        <time>2025-04-21T16:12:11.000Z</time>
      </trkpt>
      <trkpt lat="43.9514" lon="4.96095">
        <ele>-4.1999998092651</ele>
        <time>2025-04-21T16:12:13.000Z</time>
      </trkpt>
      <trkpt lat="43.95149" lon="4.9613">
        <ele>-4.1999998092651</ele>
        <time>2025-04-21T16:12:18.000Z</time>
      </trkpt>
      <trkpt lat="43.95157" lon="4.96183">
        <ele>-4.1999998092651</ele>
        <time>2025-04-21T16:12:26.000Z</time>
      </trkpt>
      <trkpt lat="43.95164" lon="4.9623">
        <ele>-4.1999998092651</ele>
        <time>2025-04-21T16:12:34.000Z</time>
      </trkpt>
      <trkpt lat="43.95171" lon="4.9628">
        <ele>-4.1999998092651</ele>
        <time>2025-04-21T16:12:42.000Z</time>
      </trkpt>
      <trkpt lat="43.95173" lon="4.96344">
        <ele>-4.4000000953674</ele>
        <time>2025-04-21T16:12:50.000Z</time>
      </trkpt>
      <trkpt lat="43.95181" lon="4.96399">
        <ele>-4.1999998092651</ele>
        <time>2025-04-21T16:12:57.000Z</time>
      </trkpt>
      <trkpt lat="43.95194" lon="4.96451">
        <ele>-4</ele>
        <time>2025-04-21T16:13:05.000Z</time>
      </trkpt>
      <trkpt lat="43.95206" lon="4.96515">
        <ele>-4</ele>
        <time>2025-04-21T16:13:15.000Z</time>
      </trkpt>
      <trkpt lat="43.95223" lon="4.9657">
        <ele>-4</ele>
        <time>2025-04-21T16:13:22.000Z</time>
      </trkpt>
      <trkpt lat="43.95237" lon="4.96572">
        <ele>-4</ele>
        <time>2025-04-21T16:13:25.000Z</time>
      </trkpt>
      <trkpt lat="43.95241" lon="4.96571">
        <ele>-4</ele>
        <time>2025-04-21T16:13:26.000Z</time>
      </trkpt>
      <trkpt lat="43.95263" lon="4.96564">
        <ele>-4</ele>
        <time>2025-04-21T16:13:32.000Z</time>
      </trkpt>
      <trkpt lat="43.95286" lon="4.96556">
        <ele>-4</ele>
        <time>2025-04-21T16:13:37.000Z</time>
      </trkpt>
      <trkpt lat="43.95292" lon="4.96555">
        <ele>-4</ele>
        <time>2025-04-21T16:13:38.000Z</time>
      </trkpt>
      <trkpt lat="43.95333" lon="4.96548">
        <ele>-3.7999999523163</ele>
        <time>2025-04-21T16:13:46.000Z</time>
      </trkpt>
      <trkpt lat="43.95356" lon="4.96549">
        <ele>-4.5999999046326</ele>
        <time>2025-04-21T16:13:51.000Z</time>
      </trkpt>
      <trkpt lat="43.95374" lon="4.96543">
        <ele>-4.1999998092651</ele>
        <time>2025-04-21T16:13:56.000Z</time>
      </trkpt>
      <trkpt lat="43.95404" lon="4.96518">
        <ele>-4</ele>
        <time>2025-04-21T16:14:03.000Z</time>
      </trkpt>
      <trkpt lat="43.95436" lon="4.96494">
        <ele>-4</ele>
        <time>2025-04-21T16:14:10.000Z</time>
      </trkpt>
      <trkpt lat="43.95472" lon="4.96466">
        <ele>-4.1999998092651</ele>
        <time>2025-04-21T16:14:18.000Z</time>
      </trkpt>
      <trkpt lat="43.95519" lon="4.96429">
        <ele>-4.4000000953674</ele>
        <time>2025-04-21T16:14:28.000Z</time>
      </trkpt>
      <trkpt lat="43.95558" lon="4.964">
        <ele>-4.4000000953674</ele>
        <time>2025-04-21T16:14:36.000Z</time>
      </trkpt>
      <trkpt lat="43.95606" lon="4.96363">
        <ele>-4.8000001907349</ele>
        <time>2025-04-21T16:14:46.000Z</time>
      </trkpt>
      <trkpt lat="43.95615" lon="4.96356">
        <ele>-4.5999999046326</ele>
        <time>2025-04-21T16:14:48.000Z</time>
      </trkpt>
      <trkpt lat="43.95642" lon="4.96335">
        <ele>-4.8000001907349</ele>
        <time>2025-04-21T16:14:55.000Z</time>
      </trkpt>
      <trkpt lat="43.95669" lon="4.96313">
        <ele>-4.8000001907349</ele>
        <time>2025-04-21T16:15:03.000Z</time>
      </trkpt>
      <trkpt lat="43.95688" lon="4.96299">
        <ele>-5.1999998092651</ele>
        <time>2025-04-21T16:15:08.000Z</time>
      </trkpt>
      <trkpt lat="43.95708" lon="4.96283">
        <ele>-5</ele>
        <time>2025-04-21T16:15:13.000Z</time>
      </trkpt>
      <trkpt lat="43.95744" lon="4.96257">
        <ele>-5</ele>
        <time>2025-04-21T16:15:21.000Z</time>
      </trkpt>
      <trkpt lat="43.95775" lon="4.96231">
        <ele>-5</ele>
        <time>2025-04-21T16:15:28.000Z</time>
      </trkpt>
      <trkpt lat="43.95824" lon="4.96193">
        <ele>-4.5999999046326</ele>
        <time>2025-04-21T16:15:39.000Z</time>
      </trkpt>
      <trkpt lat="43.95869" lon="4.96157">
        <ele>-5.1999998092651</ele>
        <time>2025-04-21T16:15:49.000Z</time>
      </trkpt>
      <trkpt lat="43.95905" lon="4.96129">
        <ele>-5.4000000953674</ele>
        <time>2025-04-21T16:15:57.000Z</time>
      </trkpt>
      <trkpt lat="43.95955" lon="4.9609">
        <ele>-5</ele>
        <time>2025-04-21T16:16:08.000Z</time>
      </trkpt>
      <trkpt lat="43.96006" lon="4.96051">
        <ele>-5.4000000953674</ele>
        <time>2025-04-21T16:16:19.000Z</time>
      </trkpt>
      <trkpt lat="43.9602" lon="4.9604">
        <ele>-5.1999998092651</ele>
        <time>2025-04-21T16:16:22.000Z</time>
      </trkpt>
      <trkpt lat="43.9607" lon="4.96002">
        <ele>-5.4000000953674</ele>
        <time>2025-04-21T16:16:33.000Z</time>
      </trkpt>
      <trkpt lat="43.96083" lon="4.95992">
        <ele>-5.4000000953674</ele>
        <time>2025-04-21T16:16:36.000Z</time>
      </trkpt>
      <trkpt lat="43.96097" lon="4.95983">
        <ele>-5</ele>
        <time>2025-04-21T16:16:39.000Z</time>
      </trkpt>
      <trkpt lat="43.96143" lon="4.95944">
        <ele>-5.1999998092651</ele>
        <time>2025-04-21T16:16:49.000Z</time>
      </trkpt>
      <trkpt lat="43.96191" lon="4.95907">
        <ele>-5.4000000953674</ele>
        <time>2025-04-21T16:16:59.000Z</time>
      </trkpt>
      <trkpt lat="43.962" lon="4.95899">
        <ele>-5.5999999046326</ele>
        <time>2025-04-21T16:17:01.000Z</time>
      </trkpt>
      <trkpt lat="43.96237" lon="4.9587">
        <ele>-5.5999999046326</ele>
        <time>2025-04-21T16:17:09.000Z</time>
      </trkpt>
      <trkpt lat="43.96283" lon="4.95835">
        <ele>-6.1999998092651</ele>
        <time>2025-04-21T16:17:19.000Z</time>
      </trkpt>
      <trkpt lat="43.96288" lon="4.95831">
        <ele>-6.4000000953674</ele>
        <time>2025-04-21T16:17:20.000Z</time>
      </trkpt>
      <trkpt lat="43.96338" lon="4.95792">
        <ele>-6.4000000953674</ele>
        <time>2025-04-21T16:17:31.000Z</time>
      </trkpt>
      <trkpt lat="43.96374" lon="4.95766">
        <ele>-7.1999998092651</ele>
        <time>2025-04-21T16:17:40.000Z</time>
      </trkpt>
      <trkpt lat="43.96377" lon="4.95764">
        <ele>-7.4000000953674</ele>
        <time>2025-04-21T16:17:41.000Z</time>
      </trkpt>
      <trkpt lat="43.96389" lon="4.9576">
        <ele>-7.1999998092651</ele>
        <time>2025-04-21T16:17:45.000Z</time>
      </trkpt>
      <trkpt lat="43.96396" lon="4.95761">
        <ele>-6.8000001907349</ele>
        <time>2025-04-21T16:18:13.000Z</time>
      </trkpt>
      <trkpt lat="43.96398" lon="4.95767">
        <ele>-7.5999999046326</ele>
        <time>2025-04-21T16:18:15.000Z</time>
      </trkpt>
      <trkpt lat="43.964" lon="4.95777">
        <ele>-7.1999998092651</ele>
        <time>2025-04-21T16:18:17.000Z</time>
      </trkpt>
      <trkpt lat="43.96402" lon="4.9579">
        <ele>-6.8000001907349</ele>
        <time>2025-04-21T16:18:19.000Z</time>
      </trkpt>
      <trkpt lat="43.96407" lon="4.95817">
        <ele>-6.4000000953674</ele>
        <time>2025-04-21T16:18:23.000Z</time>
      </trkpt>
      <trkpt lat="43.96411" lon="4.95832">
        <ele>-6.1999998092651</ele>
        <time>2025-04-21T16:18:25.000Z</time>
      </trkpt>
      <trkpt lat="43.96413" lon="4.95839">
        <ele>-6.4000000953674</ele>
        <time>2025-04-21T16:18:26.000Z</time>
      </trkpt>
      <trkpt lat="43.9643" lon="4.95903">
        <ele>-5.8000001907349</ele>
        <time>2025-04-21T16:18:34.000Z</time>
      </trkpt>
      <trkpt lat="43.96445" lon="4.95971">
        <ele>-5.8000001907349</ele>
        <time>2025-04-21T16:18:43.000Z</time>
      </trkpt>
      <trkpt lat="43.96462" lon="4.96047">
        <ele>-5.8000001907349</ele>
        <time>2025-04-21T16:18:53.000Z</time>
      </trkpt>
      <trkpt lat="43.96464" lon="4.96054">
        <ele>-5.8000001907349</ele>
        <time>2025-04-21T16:18:54.000Z</time>
      </trkpt>
      <trkpt lat="43.96482" lon="4.96133">
        <ele>-5.5999999046326</ele>
        <time>2025-04-21T16:19:04.000Z</time>
      </trkpt>
      <trkpt lat="43.96485" lon="4.96149">
        <ele>-5.4000000953674</ele>
        <time>2025-04-21T16:19:06.000Z</time>
      </trkpt>
      <trkpt lat="43.96503" lon="4.96228">
        <ele>-5.5999999046326</ele>
        <time>2025-04-21T16:19:16.000Z</time>
      </trkpt>
      <trkpt lat="43.96504" lon="4.96235">
        <ele>-5.5999999046326</ele>
        <time>2025-04-21T16:19:17.000Z</time>
      </trkpt>
      <trkpt lat="43.96515" lon="4.96289">
        <ele>-5.4000000953674</ele>
        <time>2025-04-21T16:19:25.000Z</time>
      </trkpt>
      <trkpt lat="43.96525" lon="4.96338">
        <ele>-5.1999998092651</ele>
        <time>2025-04-21T16:19:34.000Z</time>
      </trkpt>
      <trkpt lat="43.96527" lon="4.96356">
        <ele>-5.5999999046326</ele>
        <time>2025-04-21T16:19:39.000Z</time>
      </trkpt>
      <trkpt lat="43.9653" lon="4.96357">
        <ele>-5.4000000953674</ele>
        <time>2025-04-21T16:19:41.000Z</time>
      </trkpt>
      <trkpt lat="43.96536" lon="4.96353">
        <ele>-5.1999998092651</ele>
        <time>2025-04-21T16:19:43.000Z</time>
      </trkpt>
      <trkpt lat="43.96543" lon="4.96345">
        <ele>-5.5999999046326</ele>
        <time>2025-04-21T16:19:45.000Z</time>
      </trkpt>
      <trkpt lat="43.96555" lon="4.96332">
        <ele>-5.8000001907349</ele>
        <time>2025-04-21T16:19:48.000Z</time>
      </trkpt>
      <trkpt lat="43.96587" lon="4.96306">
        <ele>-6.4000000953674</ele>
        <time>2025-04-21T16:19:55.000Z</time>
      </trkpt>
      <trkpt lat="43.96601" lon="4.96297">
        <ele>-6.4000000953674</ele>
        <time>2025-04-21T16:19:58.000Z</time>
      </trkpt>
      <trkpt lat="43.96651" lon="4.96263">
        <ele>-7.1999998092651</ele>
        <time>2025-04-21T16:20:09.000Z</time>
      </trkpt>
      <trkpt lat="43.96656" lon="4.9626">
        <ele>-6.8000001907349</ele>
        <time>2025-04-21T16:20:10.000Z</time>
      </trkpt>
      <trkpt lat="43.96702" lon="4.96229">
        <ele>-7</ele>
        <time>2025-04-21T16:20:20.000Z</time>
      </trkpt>
      <trkpt lat="43.96753" lon="4.96196">
        <ele>-7.1999998092651</ele>
        <time>2025-04-21T16:20:31.000Z</time>
      </trkpt>
      <trkpt lat="43.96758" lon="4.96193">
        <ele>-7</ele>
        <time>2025-04-21T16:20:32.000Z</time>
      </trkpt>
      <trkpt lat="43.96777" lon="4.96185">
        <ele>-7.4000000953674</ele>
        <time>2025-04-21T16:20:36.000Z</time>
      </trkpt>
      <trkpt lat="43.96788" lon="4.96183">
        <ele>-7.1999998092651</ele>
        <time>2025-04-21T16:20:38.000Z</time>
      </trkpt>
      <trkpt lat="43.96826" lon="4.96175">
        <ele>-7.5999999046326</ele>
        <time>2025-04-21T16:20:45.000Z</time>
      </trkpt>
      <trkpt lat="43.96878" lon="4.9616">
        <ele>-7.5999999046326</ele>
        <time>2025-04-21T16:20:55.000Z</time>
      </trkpt>
      <trkpt lat="43.96884" lon="4.96159">
        <ele>-7.4000000953674</ele>
        <time>2025-04-21T16:20:56.000Z</time>
      </trkpt>
      <trkpt lat="43.96911" lon="4.96153">
        <ele>-7.5999999046326</ele>
        <time>2025-04-21T16:21:01.000Z</time>
      </trkpt>
      <trkpt lat="43.96958" lon="4.96142">
        <ele>-7.8000001907349</ele>
        <time>2025-04-21T16:21:10.000Z</time>
      </trkpt>
      <trkpt lat="43.97015" lon="4.96128">
        <ele>-8.1999998092651</ele>
        <time>2025-04-21T16:21:21.000Z</time>
      </trkpt>
      <trkpt lat="43.97026" lon="4.96125">
        <ele>-8.3999996185303</ele>
        <time>2025-04-21T16:21:23.000Z</time>
      </trkpt>
      <trkpt lat="43.97084" lon="4.96111">
        <ele>-8.6000003814697</ele>
        <time>2025-04-21T16:21:34.000Z</time>
      </trkpt>
      <trkpt lat="43.97089" lon="4.9611">
        <ele>-8.6000003814697</ele>
        <time>2025-04-21T16:21:35.000Z</time>
      </trkpt>
      <trkpt lat="43.9714" lon="4.96099">
        <ele>-9</ele>
        <time>2025-04-21T16:21:45.000Z</time>
      </trkpt>
      <trkpt lat="43.97144" lon="4.96097">
        <ele>-8.8000001907349</ele>
        <time>2025-04-21T16:21:46.000Z</time>
      </trkpt>
      <trkpt lat="43.9715" lon="4.96091">
        <ele>-8.6000003814697</ele>
        <time>2025-04-21T16:21:48.000Z</time>
      </trkpt>
      <trkpt lat="43.97143" lon="4.96082">
        <ele>-9.1999998092651</ele>
        <time>2025-04-21T16:21:50.000Z</time>
      </trkpt>
      <trkpt lat="43.9714" lon="4.96077">
        <ele>-9</ele>
        <time>2025-04-21T16:21:51.000Z</time>
      </trkpt>
      <trkpt lat="43.97117" lon="4.96044">
        <ele>-8.6000003814697</ele>
        <time>2025-04-21T16:21:57.000Z</time>
      </trkpt>
      <trkpt lat="43.97079" lon="4.9598">
        <ele>-8.6000003814697</ele>
        <time>2025-04-21T16:22:08.000Z</time>
      </trkpt>
      <trkpt lat="43.97043" lon="4.95921">
        <ele>-8.3999996185303</ele>
        <time>2025-04-21T16:22:19.000Z</time>
      </trkpt>
      <trkpt lat="43.97012" lon="4.95864">
        <ele>-8.1999998092651</ele>
        <time>2025-04-21T16:22:29.000Z</time>
      </trkpt>
      <trkpt lat="43.9698" lon="4.95807">
        <ele>-8.3999996185303</ele>
        <time>2025-04-21T16:22:39.000Z</time>
      </trkpt>
      <trkpt lat="43.96956" lon="4.95761">
        <ele>-8.3999996185303</ele>
        <time>2025-04-21T16:22:47.000Z</time>
      </trkpt>
      <trkpt lat="43.96954" lon="4.95754">
        <ele>-8.8000001907349</ele>
        <time>2025-04-21T16:22:48.000Z</time>
      </trkpt>
      <trkpt lat="43.9696" lon="4.95737">
        <ele>-8.8000001907349</ele>
        <time>2025-04-21T16:22:51.000Z</time>
      </trkpt>
      <trkpt lat="43.96974" lon="4.95724">
        <ele>-8.1999998092651</ele>
        <time>2025-04-21T16:22:54.000Z</time>
      </trkpt>
      <trkpt lat="43.96988" lon="4.95711">
        <ele>-8.3999996185303</ele>
        <time>2025-04-21T16:22:57.000Z</time>
      </trkpt>
      <trkpt lat="43.9702" lon="4.95678">
        <ele>-9</ele>
        <time>2025-04-21T16:23:04.000Z</time>
      </trkpt>
      <trkpt lat="43.97023" lon="4.95672">
        <ele>-9.1999998092651</ele>
        <time>2025-04-21T16:23:05.000Z</time>
      </trkpt>
      <trkpt lat="43.97021" lon="4.95653">
        <ele>-9</ele>
        <time>2025-04-21T16:23:08.000Z</time>
      </trkpt>
      <trkpt lat="43.97014" lon="4.95642">
        <ele>-8.8000001907349</ele>
        <time>2025-04-21T16:23:10.000Z</time>
      </trkpt>
      <trkpt lat="43.9701" lon="4.95638">
        <ele>-8.8000001907349</ele>
        <time>2025-04-21T16:23:11.000Z</time>
      </trkpt>
      <trkpt lat="43.97005" lon="4.95633">
        <ele>-8.8000001907349</ele>
        <time>2025-04-21T16:23:12.000Z</time>
      </trkpt>
      <trkpt lat="43.96967" lon="4.95598">
        <ele>-9</ele>
        <time>2025-04-21T16:23:21.000Z</time>
      </trkpt>
      <trkpt lat="43.96924" lon="4.95555">
        <ele>-8.6000003814697</ele>
        <time>2025-04-21T16:23:31.000Z</time>
      </trkpt>
      <trkpt lat="43.96883" lon="4.95506">
        <ele>-8.8000001907349</ele>
        <time>2025-04-21T16:23:41.000Z</time>
      </trkpt>
      <trkpt lat="43.96842" lon="4.95469">
        <ele>-8.8000001907349</ele>
        <time>2025-04-21T16:23:50.000Z</time>
      </trkpt>
      <trkpt lat="43.96808" lon="4.95445">
        <ele>-8.8000001907349</ele>
        <time>2025-04-21T16:23:57.000Z</time>
      </trkpt>
      <trkpt lat="43.9676" lon="4.95414">
        <ele>-8.3999996185303</ele>
        <time>2025-04-21T16:24:07.000Z</time>
      </trkpt>
      <trkpt lat="43.96713" lon="4.95378">
        <ele>-8.1999998092651</ele>
        <time>2025-04-21T16:24:17.000Z</time>
      </trkpt>
      <trkpt lat="43.96663" lon="4.95346">
        <ele>-8.1999998092651</ele>
        <time>2025-04-21T16:24:27.000Z</time>
      </trkpt>
      <trkpt lat="43.96658" lon="4.95342">
        <ele>-8.1999998092651</ele>
        <time>2025-04-21T16:24:28.000Z</time>
      </trkpt>
      <trkpt lat="43.96608" lon="4.9531">
        <ele>-8.1999998092651</ele>
        <time>2025-04-21T16:24:38.000Z</time>
      </trkpt>
      <trkpt lat="43.96589" lon="4.95296">
        <ele>-8</ele>
        <time>2025-04-21T16:24:42.000Z</time>
      </trkpt>
      <trkpt lat="43.96543" lon="4.95262">
        <ele>-7.8000001907349</ele>
        <time>2025-04-21T16:24:52.000Z</time>
      </trkpt>
      <trkpt lat="43.96491" lon="4.95223">
        <ele>-7.5999999046326</ele>
        <time>2025-04-21T16:25:03.000Z</time>
      </trkpt>
      <trkpt lat="43.96463" lon="4.95189">
        <ele>-7.5999999046326</ele>
        <time>2025-04-21T16:25:10.000Z</time>
      </trkpt>
      <trkpt lat="43.96443" lon="4.95152">
        <ele>-8</ele>
        <time>2025-04-21T16:25:16.000Z</time>
      </trkpt>
      <trkpt lat="43.96438" lon="4.95148">
        <ele>-8</ele>
        <time>2025-04-21T16:25:17.000Z</time>
      </trkpt>
      <trkpt lat="43.96417" lon="4.9514">
        <ele>-8.1999998092651</ele>
        <time>2025-04-21T16:25:21.000Z</time>
      </trkpt>
      <trkpt lat="43.96412" lon="4.95141">
        <ele>-8.1999998092651</ele>
        <time>2025-04-21T16:25:22.000Z</time>
      </trkpt>
      <trkpt lat="43.96385" lon="4.95137">
        <ele>-8.1999998092651</ele>
        <time>2025-04-21T16:25:27.000Z</time>
      </trkpt>
      <trkpt lat="43.9638" lon="4.95134">
        <ele>-8</ele>
        <time>2025-04-21T16:25:28.000Z</time>
      </trkpt>
      <trkpt lat="43.96346" lon="4.95108">
        <ele>-8.3999996185303</ele>
        <time>2025-04-21T16:25:35.000Z</time>
      </trkpt>
      <trkpt lat="43.96331" lon="4.95097">
        <ele>-8.3999996185303</ele>
        <time>2025-04-21T16:25:38.000Z</time>
      </trkpt>
      <trkpt lat="43.96321" lon="4.95095">
        <ele>-8.3999996185303</ele>
        <time>2025-04-21T16:25:40.000Z</time>
      </trkpt>
      <trkpt lat="43.9631" lon="4.95095">
        <ele>-8.8000001907349</ele>
        <time>2025-04-21T16:25:42.000Z</time>
      </trkpt>
      <trkpt lat="43.96289" lon="4.95096">
        <ele>-8.6000003814697</ele>
        <time>2025-04-21T16:25:46.000Z</time>
      </trkpt>
      <trkpt lat="43.96274" lon="4.95091">
        <ele>-8</ele>
        <time>2025-04-21T16:25:50.000Z</time>
      </trkpt>
      <trkpt lat="43.96272" lon="4.95074">
        <ele>-8</ele>
        <time>2025-04-21T16:25:53.000Z</time>
      </trkpt>
      <trkpt lat="43.96272" lon="4.95067">
        <ele>-7.8000001907349</ele>
        <time>2025-04-21T16:25:54.000Z</time>
      </trkpt>
      <trkpt lat="43.96273" lon="4.95021">
        <ele>-8</ele>
        <time>2025-04-21T16:26:00.000Z</time>
      </trkpt>
      <trkpt lat="43.96272" lon="4.94941">
        <ele>-7.5999999046326</ele>
        <time>2025-04-21T16:26:10.000Z</time>
      </trkpt>
      <trkpt lat="43.96259" lon="4.94873">
        <ele>-8</ele>
        <time>2025-04-21T16:26:19.000Z</time>
      </trkpt>
      <trkpt lat="43.96241" lon="4.94821">
        <ele>-7.4000000953674</ele>
        <time>2025-04-21T16:26:27.000Z</time>
      </trkpt>
      <trkpt lat="43.96238" lon="4.94815">
        <ele>-7.1999998092651</ele>
        <time>2025-04-21T16:26:28.000Z</time>
      </trkpt>
      <trkpt lat="43.96221" lon="4.94773">
        <ele>-7.1999998092651</ele>
        <time>2025-04-21T16:26:34.000Z</time>
      </trkpt>
      <trkpt lat="43.96205" lon="4.94729">
        <ele>-8.3999996185303</ele>
        <time>2025-04-21T16:26:40.000Z</time>
      </trkpt>
      <trkpt lat="43.96201" lon="4.94717">
        <ele>-8.8000001907349</ele>
        <time>2025-04-21T16:26:42.000Z</time>
      </trkpt>
      <trkpt lat="43.96202" lon="4.94713">
        <ele>-8.8000001907349</ele>
        <time>2025-04-21T16:26:43.000Z</time>
      </trkpt>
      <trkpt lat="43.96213" lon="4.947">
        <ele>-9.1999998092651</ele>
        <time>2025-04-21T16:26:47.000Z</time>
      </trkpt>
      <trkpt lat="43.96217" lon="4.94697">
        <ele>-9</ele>
        <time>2025-04-21T16:26:48.000Z</time>
      </trkpt>
      <trkpt lat="43.9624" lon="4.94679">
        <ele>-9.1999998092651</ele>
        <time>2025-04-21T16:26:53.000Z</time>
      </trkpt>
      <trkpt lat="43.96273" lon="4.94657">
        <ele>-9</ele>
        <time>2025-04-21T16:27:00.000Z</time>
      </trkpt>
      <trkpt lat="43.96277" lon="4.94653">
        <ele>-9.1999998092651</ele>
        <time>2025-04-21T16:27:01.000Z</time>
      </trkpt>
      <trkpt lat="43.9628" lon="4.94643">
        <ele>-9.1999998092651</ele>
        <time>2025-04-21T16:27:03.000Z</time>
      </trkpt>
      <trkpt lat="43.96279" lon="4.94629">
        <ele>-9.1999998092651</ele>
        <time>2025-04-21T16:27:05.000Z</time>
      </trkpt>
      <trkpt lat="43.96276" lon="4.94609">
        <ele>-9.1999998092651</ele>
        <time>2025-04-21T16:27:08.000Z</time>
      </trkpt>
      <trkpt lat="43.96274" lon="4.94603">
        <ele>-9.3999996185303</ele>
        <time>2025-04-21T16:27:09.000Z</time>
      </trkpt>
      <trkpt lat="43.96259" lon="4.94539">
        <ele>-9.1999998092651</ele>
        <time>2025-04-21T16:27:18.000Z</time>
      </trkpt>
      <trkpt lat="43.96241" lon="4.94468">
        <ele>-9.1999998092651</ele>
        <time>2025-04-21T16:27:28.000Z</time>
      </trkpt>
      <trkpt lat="43.96225" lon="4.94398">
        <ele>-9</ele>
        <time>2025-04-21T16:27:38.000Z</time>
      </trkpt>
      <trkpt lat="43.96213" lon="4.94343">
        <ele>-9.1999998092651</ele>
        <time>2025-04-21T16:27:46.000Z</time>
      </trkpt>
      <trkpt lat="43.96197" lon="4.94264">
        <ele>-8.8000001907349</ele>
        <time>2025-04-21T16:27:57.000Z</time>
      </trkpt>
      <trkpt lat="43.96195" lon="4.94256">
        <ele>-8.8000001907349</ele>
        <time>2025-04-21T16:27:58.000Z</time>
      </trkpt>
      <trkpt lat="43.96179" lon="4.94179">
        <ele>-8.8000001907349</ele>
        <time>2025-04-21T16:28:09.000Z</time>
      </trkpt>
      <trkpt lat="43.96176" lon="4.94165">
        <ele>-8.8000001907349</ele>
        <time>2025-04-21T16:28:11.000Z</time>
      </trkpt>
      <trkpt lat="43.96166" lon="4.94122">
        <ele>-9</ele>
        <time>2025-04-21T16:28:18.000Z</time>
      </trkpt>
      <trkpt lat="43.96155" lon="4.9407">
        <ele>-8.8000001907349</ele>
        <time>2025-04-21T16:28:27.000Z</time>
      </trkpt>
      <trkpt lat="43.96156" lon="4.94066">
        <ele>-8.8000001907349</ele>
        <time>2025-04-21T16:28:28.000Z</time>
      </trkpt>
      <trkpt lat="43.96161" lon="4.94063">
        <ele>-9.1999998092651</ele>
        <time>2025-04-21T16:28:30.000Z</time>
      </trkpt>
      <trkpt lat="43.96174" lon="4.94062">
        <ele>-9</ele>
        <time>2025-04-21T16:28:33.000Z</time>
      </trkpt>
      <trkpt lat="43.96179" lon="4.94062">
        <ele>-9</ele>
        <time>2025-04-21T16:28:34.000Z</time>
      </trkpt>
      <trkpt lat="43.9622" lon="4.94065">
        <ele>-9.3999996185303</ele>
        <time>2025-04-21T16:28:41.000Z</time>
      </trkpt>
      <trkpt lat="43.96264" lon="4.94059">
        <ele>-9.6000003814697</ele>
        <time>2025-04-21T16:28:49.000Z</time>
      </trkpt>
      <trkpt lat="43.96309" lon="4.94053">
        <ele>-9.3999996185303</ele>
        <time>2025-04-21T16:28:57.000Z</time>
      </trkpt>
      <trkpt lat="43.96363" lon="4.94054">
        <ele>-9.8000001907349</ele>
        <time>2025-04-21T16:29:06.000Z</time>
      </trkpt>
      <trkpt lat="43.96369" lon="4.94054">
        <ele>-10</ele>
        <time>2025-04-21T16:29:07.000Z</time>
      </trkpt>
      <trkpt lat="43.96413" lon="4.94051">
        <ele>-9.8000001907349</ele>
        <time>2025-04-21T16:29:15.000Z</time>
      </trkpt>
      <trkpt lat="43.96455" lon="4.94049">
        <ele>-10</ele>
        <time>2025-04-21T16:29:22.000Z</time>
      </trkpt>
      <trkpt lat="43.96509" lon="4.94042">
        <ele>-9.8000001907349</ele>
        <time>2025-04-21T16:29:31.000Z</time>
      </trkpt>
      <trkpt lat="43.96564" lon="4.94028">
        <ele>-10.199999809265</ele>
        <time>2025-04-21T16:29:40.000Z</time>
      </trkpt>
      <trkpt lat="43.9657" lon="4.94026">
        <ele>-10.39999961853</ele>
        <time>2025-04-21T16:29:41.000Z</time>
      </trkpt>
      <trkpt lat="43.96621" lon="4.94007">
        <ele>-10.39999961853</ele>
        <time>2025-04-21T16:29:50.000Z</time>
      </trkpt>
      <trkpt lat="43.96667" lon="4.93987">
        <ele>-10.60000038147</ele>
        <time>2025-04-21T16:29:58.000Z</time>
      </trkpt>
      <trkpt lat="43.96698" lon="4.93959">
        <ele>-10.39999961853</ele>
        <time>2025-04-21T16:30:04.000Z</time>
      </trkpt>
      <trkpt lat="43.96732" lon="4.93927">
        <ele>-10.199999809265</ele>
        <time>2025-04-21T16:30:11.000Z</time>
      </trkpt>
      <trkpt lat="43.9676" lon="4.93915">
        <ele>-9.8000001907349</ele>
        <time>2025-04-21T16:30:16.000Z</time>
      </trkpt>
      <trkpt lat="43.96808" lon="4.93905">
        <ele>-9.6000003814697</ele>
        <time>2025-04-21T16:30:24.000Z</time>
      </trkpt>
      <trkpt lat="43.96862" lon="4.93891">
        <ele>-10</ele>
        <time>2025-04-21T16:30:33.000Z</time>
      </trkpt>
      <trkpt lat="43.9688" lon="4.93886">
        <ele>-9.8000001907349</ele>
        <time>2025-04-21T16:30:36.000Z</time>
      </trkpt>
      <trkpt lat="43.96935" lon="4.93873">
        <ele>-10.199999809265</ele>
        <time>2025-04-21T16:30:45.000Z</time>
      </trkpt>
      <trkpt lat="43.96947" lon="4.9387">
        <ele>-10.199999809265</ele>
        <time>2025-04-21T16:30:47.000Z</time>
      </trkpt>
      <trkpt lat="43.97001" lon="4.93857">
        <ele>-10.39999961853</ele>
        <time>2025-04-21T16:30:56.000Z</time>
      </trkpt>
      <trkpt lat="43.97007" lon="4.93856">
        <ele>-10.39999961853</ele>
        <time>2025-04-21T16:30:57.000Z</time>
      </trkpt>
      <trkpt lat="43.97056" lon="4.93845">
        <ele>-10.60000038147</ele>
        <time>2025-04-21T16:31:05.000Z</time>
      </trkpt>
      <trkpt lat="43.9711" lon="4.93828">
        <ele>-11</ele>
        <time>2025-04-21T16:31:14.000Z</time>
      </trkpt>
      <trkpt lat="43.97147" lon="4.9382">
        <ele>-11.199999809265</ele>
        <time>2025-04-21T16:31:20.000Z</time>
      </trkpt>
      <trkpt lat="43.97159" lon="4.93824">
        <ele>-11.199999809265</ele>
        <time>2025-04-21T16:31:22.000Z</time>
      </trkpt>
      <trkpt lat="43.97168" lon="4.93838">
        <ele>-11.199999809265</ele>
        <time>2025-04-21T16:31:24.000Z</time>
      </trkpt>
      <trkpt lat="43.97172" lon="4.93864">
        <ele>-11</ele>
        <time>2025-04-21T16:31:27.000Z</time>
      </trkpt>
      <trkpt lat="43.97173" lon="4.93873">
        <ele>-11.199999809265</ele>
        <time>2025-04-21T16:31:28.000Z</time>
      </trkpt>
      <trkpt lat="43.9718" lon="4.93916">
        <ele>-11.39999961853</ele>
        <time>2025-04-21T16:31:33.000Z</time>
      </trkpt>
      <trkpt lat="43.97183" lon="4.93923">
        <ele>-11.60000038147</ele>
        <time>2025-04-21T16:31:34.000Z</time>
      </trkpt>
      <trkpt lat="43.97203" lon="4.93944">
        <ele>-11.39999961853</ele>
        <time>2025-04-21T16:31:38.000Z</time>
      </trkpt>
      <trkpt lat="43.97252" lon="4.93984">
        <ele>-11.39999961853</ele>
        <time>2025-04-21T16:31:47.000Z</time>
      </trkpt>
      <trkpt lat="43.97269" lon="4.93998">
        <ele>-11.39999961853</ele>
        <time>2025-04-21T16:31:50.000Z</time>
      </trkpt>
      <trkpt lat="43.97298" lon="4.94031">
        <ele>-11.60000038147</ele>
        <time>2025-04-21T16:31:56.000Z</time>
      </trkpt>
      <trkpt lat="43.97315" lon="4.9407">
        <ele>-11.39999961853</ele>
        <time>2025-04-21T16:32:01.000Z</time>
      </trkpt>
      <trkpt lat="43.97322" lon="4.94112">
        <ele>-11.60000038147</ele>
        <time>2025-04-21T16:32:06.000Z</time>
      </trkpt>
      <trkpt lat="43.97333" lon="4.94169">
        <ele>-11.39999961853</ele>
        <time>2025-04-21T16:32:13.000Z</time>
      </trkpt>
      <trkpt lat="43.97336" lon="4.94176">
        <ele>-11.60000038147</ele>
        <time>2025-04-21T16:32:14.000Z</time>
      </trkpt>
      <trkpt lat="43.97357" lon="4.94196">
        <ele>-12</ele>
        <time>2025-04-21T16:32:18.000Z</time>
      </trkpt>
      <trkpt lat="43.97369" lon="4.94203">
        <ele>-11.800000190735</ele>
        <time>2025-04-21T16:32:20.000Z</time>
      </trkpt>
      <trkpt lat="43.97399" lon="4.94217">
        <ele>-12.199999809265</ele>
        <time>2025-04-21T16:32:25.000Z</time>
      </trkpt>
      <trkpt lat="43.97439" lon="4.94238">
        <ele>-12.199999809265</ele>
        <time>2025-04-21T16:32:32.000Z</time>
      </trkpt>
      <trkpt lat="43.97492" lon="4.94264">
        <ele>-12.199999809265</ele>
        <time>2025-04-21T16:32:41.000Z</time>
      </trkpt>
      <trkpt lat="43.97498" lon="4.94267">
        <ele>-12.199999809265</ele>
        <time>2025-04-21T16:32:42.000Z</time>
      </trkpt>
      <trkpt lat="43.9751" lon="4.94273">
        <ele>-12.39999961853</ele>
        <time>2025-04-21T16:32:44.000Z</time>
      </trkpt>
      <trkpt lat="43.97556" lon="4.94299">
        <ele>-12.39999961853</ele>
        <time>2025-04-21T16:32:52.000Z</time>
      </trkpt>
      <trkpt lat="43.97589" lon="4.94321">
        <ele>-12.39999961853</ele>
        <time>2025-04-21T16:32:58.000Z</time>
      </trkpt>
      <trkpt lat="43.97625" lon="4.94336">
        <ele>-12.39999961853</ele>
        <time>2025-04-21T16:33:05.000Z</time>
      </trkpt>
      <trkpt lat="43.97668" lon="4.94353">
        <ele>-12.800000190735</ele>
        <time>2025-04-21T16:33:14.000Z</time>
      </trkpt>
      <trkpt lat="43.97678" lon="4.94358">
        <ele>-12.800000190735</ele>
        <time>2025-04-21T16:33:16.000Z</time>
      </trkpt>
      <trkpt lat="43.97685" lon="4.94371">
        <ele>-13</ele>
        <time>2025-04-21T16:33:18.000Z</time>
      </trkpt>
      <trkpt lat="43.97691" lon="4.94388">
        <ele>-12.800000190735</ele>
        <time>2025-04-21T16:33:20.000Z</time>
      </trkpt>
      <trkpt lat="43.97698" lon="4.94417">
        <ele>-13</ele>
        <time>2025-04-21T16:33:23.000Z</time>
      </trkpt>
      <trkpt lat="43.97711" lon="4.94476">
        <ele>-13.199999809265</ele>
        <time>2025-04-21T16:33:29.000Z</time>
      </trkpt>
      <trkpt lat="43.97715" lon="4.94481">
        <ele>-13.39999961853</ele>
        <time>2025-04-21T16:33:30.000Z</time>
      </trkpt>
      <trkpt lat="43.97721" lon="4.94485">
        <ele>-13.60000038147</ele>
        <time>2025-04-21T16:33:31.000Z</time>
      </trkpt>
      <trkpt lat="43.97731" lon="4.94488">
        <ele>-14</ele>
        <time>2025-04-21T16:33:33.000Z</time>
      </trkpt>
      <trkpt lat="43.97743" lon="4.94486">
        <ele>-13.800000190735</ele>
        <time>2025-04-21T16:33:35.000Z</time>
      </trkpt>
      <trkpt lat="43.97756" lon="4.94482">
        <ele>-14.199999809265</ele>
        <time>2025-04-21T16:33:37.000Z</time>
      </trkpt>
      <trkpt lat="43.97801" lon="4.9446">
        <ele>-14</ele>
        <time>2025-04-21T16:33:44.000Z</time>
      </trkpt>
      <trkpt lat="43.97848" lon="4.94425">
        <ele>-13.800000190735</ele>
        <time>2025-04-21T16:33:52.000Z</time>
      </trkpt>
      <trkpt lat="43.97883" lon="4.94386">
        <ele>-13.800000190735</ele>
        <time>2025-04-21T16:33:59.000Z</time>
      </trkpt>
      <trkpt lat="43.97912" lon="4.94336">
        <ele>-14.199999809265</ele>
        <time>2025-04-21T16:34:06.000Z</time>
      </trkpt>
      <trkpt lat="43.97928" lon="4.94287">
        <ele>-14.60000038147</ele>
        <time>2025-04-21T16:34:12.000Z</time>
      </trkpt>
      <trkpt lat="43.9795" lon="4.94228">
        <ele>-14.39999961853</ele>
        <time>2025-04-21T16:34:20.000Z</time>
      </trkpt>
      <trkpt lat="43.97968" lon="4.94209">
        <ele>-14.60000038147</ele>
        <time>2025-04-21T16:34:24.000Z</time>
      </trkpt>
      <trkpt lat="43.97974" lon="4.94205">
        <ele>-14.800000190735</ele>
        <time>2025-04-21T16:34:25.000Z</time>
      </trkpt>
      <trkpt lat="43.97997" lon="4.94205">
        <ele>-14.60000038147</ele>
        <time>2025-04-21T16:34:29.000Z</time>
      </trkpt>
      <trkpt lat="43.98024" lon="4.94226">
        <ele>-14.39999961853</ele>
        <time>2025-04-21T16:34:34.000Z</time>
      </trkpt>
      <trkpt lat="43.98057" lon="4.94255">
        <ele>-14.800000190735</ele>
        <time>2025-04-21T16:34:40.000Z</time>
      </trkpt>
      <trkpt lat="43.98063" lon="4.94256">
        <ele>-15</ele>
        <time>2025-04-21T16:34:41.000Z</time>
      </trkpt>
      <trkpt lat="43.98088" lon="4.94249">
        <ele>-15.39999961853</ele>
        <time>2025-04-21T16:34:45.000Z</time>
      </trkpt>
      <trkpt lat="43.98094" lon="4.94246">
        <ele>-15.60000038147</ele>
        <time>2025-04-21T16:34:46.000Z</time>
      </trkpt>
      <trkpt lat="43.98135" lon="4.94225">
        <ele>-15.39999961853</ele>
        <time>2025-04-21T16:34:53.000Z</time>
      </trkpt>
      <trkpt lat="43.98163" lon="4.94197">
        <ele>-15.199999809265</ele>
        <time>2025-04-21T16:34:58.000Z</time>
      </trkpt>
      <trkpt lat="43.98197" lon="4.94155">
        <ele>-15.800000190735</ele>
        <time>2025-04-21T16:35:05.000Z</time>
      </trkpt>
      <trkpt lat="43.98211" lon="4.94136">
        <ele>-15.60000038147</ele>
        <time>2025-04-21T16:35:08.000Z</time>
      </trkpt>
      <trkpt lat="43.98215" lon="4.94129">
        <ele>-15.39999961853</ele>
        <time>2025-04-21T16:35:09.000Z</time>
      </trkpt>
      <trkpt lat="43.9822" lon="4.94104">
        <ele>-15.60000038147</ele>
        <time>2025-04-21T16:35:12.000Z</time>
      </trkpt>
      <trkpt lat="43.98216" lon="4.94069">
        <ele>-15.60000038147</ele>
        <time>2025-04-21T16:35:16.000Z</time>
      </trkpt>
      <trkpt lat="43.98215" lon="4.9406">
        <ele>-15.800000190735</ele>
        <time>2025-04-21T16:35:17.000Z</time>
      </trkpt>
      <trkpt lat="43.98214" lon="4.94043">
        <ele>-15.800000190735</ele>
        <time>2025-04-21T16:35:19.000Z</time>
      </trkpt>
      <trkpt lat="43.98216" lon="4.94026">
        <ele>-16</ele>
        <time>2025-04-21T16:35:21.000Z</time>
      </trkpt>
      <trkpt lat="43.98228" lon="4.94006">
        <ele>-16</ele>
        <time>2025-04-21T16:35:24.000Z</time>
      </trkpt>
      <trkpt lat="43.98233" lon="4.94">
        <ele>-16.200000762939</ele>
        <time>2025-04-21T16:35:25.000Z</time>
      </trkpt>
      <trkpt lat="43.98269" lon="4.93965">
        <ele>-16</ele>
        <time>2025-04-21T16:35:32.000Z</time>
      </trkpt>
      <trkpt lat="43.98295" lon="4.93963">
        <ele>-16.200000762939</ele>
        <time>2025-04-21T16:35:36.000Z</time>
      </trkpt>
      <trkpt lat="43.98346" lon="4.93957">
        <ele>-15.800000190735</ele>
        <time>2025-04-21T16:35:44.000Z</time>
      </trkpt>
      <trkpt lat="43.9839" lon="4.93942">
        <ele>-16</ele>
        <time>2025-04-21T16:35:51.000Z</time>
      </trkpt>
      <trkpt lat="43.98445" lon="4.93918">
        <ele>-16.60000038147</ele>
        <time>2025-04-21T16:36:00.000Z</time>
      </trkpt>
      <trkpt lat="43.98494" lon="4.93911">
        <ele>-16.39999961853</ele>
        <time>2025-04-21T16:36:08.000Z</time>
      </trkpt>
      <trkpt lat="43.98507" lon="4.93908">
        <ele>-16.60000038147</ele>
        <time>2025-04-21T16:36:10.000Z</time>
      </trkpt>
      <trkpt lat="43.98524" lon="4.93899">
        <ele>-16.60000038147</ele>
        <time>2025-04-21T16:36:13.000Z</time>
      </trkpt>
      <trkpt lat="43.98563" lon="4.93866">
        <ele>-16.60000038147</ele>
        <time>2025-04-21T16:36:20.000Z</time>
      </trkpt>
      <trkpt lat="43.9859" lon="4.93843">
        <ele>-16.60000038147</ele>
        <time>2025-04-21T16:36:25.000Z</time>
      </trkpt>
      <trkpt lat="43.98602" lon="4.93839">
        <ele>-16.39999961853</ele>
        <time>2025-04-21T16:36:27.000Z</time>
      </trkpt>
      <trkpt lat="43.98638" lon="4.93828">
        <ele>-16.60000038147</ele>
        <time>2025-04-21T16:36:33.000Z</time>
      </trkpt>
      <trkpt lat="43.98668" lon="4.93808">
        <ele>-17</ele>
        <time>2025-04-21T16:36:38.000Z</time>
      </trkpt>
      <trkpt lat="43.98673" lon="4.93803">
        <ele>-16.799999237061</ele>
        <time>2025-04-21T16:36:39.000Z</time>
      </trkpt>
      <trkpt lat="43.98705" lon="4.93763">
        <ele>-17</ele>
        <time>2025-04-21T16:36:46.000Z</time>
      </trkpt>
      <trkpt lat="43.98738" lon="4.93742">
        <ele>-16.799999237061</ele>
        <time>2025-04-21T16:36:52.000Z</time>
      </trkpt>
      <trkpt lat="43.98783" lon="4.93728">
        <ele>-16.60000038147</ele>
        <time>2025-04-21T16:36:59.000Z</time>
      </trkpt>
      <trkpt lat="43.98833" lon="4.93718">
        <ele>-16.799999237061</ele>
        <time>2025-04-21T16:37:07.000Z</time>
      </trkpt>
      <trkpt lat="43.98858" lon="4.93723">
        <ele>-16.60000038147</ele>
        <time>2025-04-21T16:37:11.000Z</time>
      </trkpt>
      <trkpt lat="43.98865" lon="4.93723">
        <ele>-17</ele>
        <time>2025-04-21T16:37:12.000Z</time>
      </trkpt>
      <trkpt lat="43.98884" lon="4.93718">
        <ele>-17.200000762939</ele>
        <time>2025-04-21T16:37:15.000Z</time>
      </trkpt>
      <trkpt lat="43.98897" lon="4.93712">
        <ele>-17.39999961853</ele>
        <time>2025-04-21T16:37:17.000Z</time>
      </trkpt>
      <trkpt lat="43.98946" lon="4.93694">
        <ele>-17.60000038147</ele>
        <time>2025-04-21T16:37:25.000Z</time>
      </trkpt>
      <trkpt lat="43.98979" lon="4.93696">
        <ele>-18</ele>
        <time>2025-04-21T16:37:30.000Z</time>
      </trkpt>
      <trkpt lat="43.98986" lon="4.93696">
        <ele>-18</ele>
        <time>2025-04-21T16:37:31.000Z</time>
      </trkpt>
      <trkpt lat="43.98993" lon="4.93696">
        <ele>-17.799999237061</ele>
        <time>2025-04-21T16:37:32.000Z</time>
      </trkpt>
      <trkpt lat="43.99012" lon="4.93691">
        <ele>-17.799999237061</ele>
        <time>2025-04-21T16:37:35.000Z</time>
      </trkpt>
      <trkpt lat="43.99018" lon="4.93688">
        <ele>-17.799999237061</ele>
        <time>2025-04-21T16:37:36.000Z</time>
      </trkpt>
      <trkpt lat="43.99067" lon="4.93666">
        <ele>-18.200000762939</ele>
        <time>2025-04-21T16:37:44.000Z</time>
      </trkpt>
      <trkpt lat="43.99122" lon="4.93643">
        <ele>-17.799999237061</ele>
        <time>2025-04-21T16:37:53.000Z</time>
      </trkpt>
      <trkpt lat="43.99128" lon="4.93639">
        <ele>-17.799999237061</ele>
        <time>2025-04-21T16:37:54.000Z</time>
      </trkpt>
      <trkpt lat="43.99138" lon="4.93628">
        <ele>-18</ele>
        <time>2025-04-21T16:37:56.000Z</time>
      </trkpt>
      <trkpt lat="43.99157" lon="4.93608">
        <ele>-17.799999237061</ele>
        <time>2025-04-21T16:38:00.000Z</time>
      </trkpt>
      <trkpt lat="43.99169" lon="4.93605">
        <ele>-17.799999237061</ele>
        <time>2025-04-21T16:38:02.000Z</time>
      </trkpt>
      <trkpt lat="43.99181" lon="4.93603">
        <ele>-18</ele>
        <time>2025-04-21T16:38:04.000Z</time>
      </trkpt>
      <trkpt lat="43.99201" lon="4.93598">
        <ele>-18</ele>
        <time>2025-04-21T16:38:07.000Z</time>
      </trkpt>
      <trkpt lat="43.99245" lon="4.93582">
        <ele>-18.39999961853</ele>
        <time>2025-04-21T16:38:14.000Z</time>
      </trkpt>
      <trkpt lat="43.99298" lon="4.93555">
        <ele>-18.200000762939</ele>
        <time>2025-04-21T16:38:23.000Z</time>
      </trkpt>
      <trkpt lat="43.99324" lon="4.93529">
        <ele>-18</ele>
        <time>2025-04-21T16:38:28.000Z</time>
      </trkpt>
      <trkpt lat="43.99336" lon="4.93522">
        <ele>-18.200000762939</ele>
        <time>2025-04-21T16:38:30.000Z</time>
      </trkpt>
      <trkpt lat="43.99349" lon="4.93519">
        <ele>-18.200000762939</ele>
        <time>2025-04-21T16:38:32.000Z</time>
      </trkpt>
      <trkpt lat="43.99362" lon="4.93517">
        <ele>-18.39999961853</ele>
        <time>2025-04-21T16:38:34.000Z</time>
      </trkpt>
      <trkpt lat="43.99395" lon="4.93512">
        <ele>-18</ele>
        <time>2025-04-21T16:38:39.000Z</time>
      </trkpt>
      <trkpt lat="43.99446" lon="4.93494">
        <ele>-18.39999961853</ele>
        <time>2025-04-21T16:38:47.000Z</time>
      </trkpt>
      <trkpt lat="43.99492" lon="4.93477">
        <ele>-18</ele>
        <time>2025-04-21T16:38:55.000Z</time>
      </trkpt>
      <trkpt lat="43.9951" lon="4.93467">
        <ele>-18.200000762939</ele>
        <time>2025-04-21T16:39:00.000Z</time>
      </trkpt>
      <trkpt lat="43.99509" lon="4.93453">
        <ele>-17.799999237061</ele>
        <time>2025-04-21T16:39:04.000Z</time>
      </trkpt>
      <trkpt lat="43.99507" lon="4.93447">
        <ele>-18</ele>
        <time>2025-04-21T16:39:05.000Z</time>
      </trkpt>
      <trkpt lat="43.995" lon="4.93424">
        <ele>-18</ele>
        <time>2025-04-21T16:39:09.000Z</time>
      </trkpt>
      <trkpt lat="43.99486" lon="4.93376">
        <ele>-18.39999961853</ele>
        <time>2025-04-21T16:39:17.000Z</time>
      </trkpt>
      <trkpt lat="43.99468" lon="4.9331">
        <ele>-18.200000762939</ele>
        <time>2025-04-21T16:39:27.000Z</time>
      </trkpt>
      <trkpt lat="43.99453" lon="4.9324">
        <ele>-18</ele>
        <time>2025-04-21T16:39:37.000Z</time>
      </trkpt>
      <trkpt lat="43.99437" lon="4.93164">
        <ele>-18.200000762939</ele>
        <time>2025-04-21T16:39:47.000Z</time>
      </trkpt>
      <trkpt lat="43.99422" lon="4.93087">
        <ele>-18.39999961853</ele>
        <time>2025-04-21T16:39:57.000Z</time>
      </trkpt>
      <trkpt lat="43.9942" lon="4.93079">
        <ele>-18.60000038147</ele>
        <time>2025-04-21T16:39:58.000Z</time>
      </trkpt>
      <trkpt lat="43.99405" lon="4.93006">
        <ele>-18.39999961853</ele>
        <time>2025-04-21T16:40:07.000Z</time>
      </trkpt>
      <trkpt lat="43.99401" lon="4.92991">
        <ele>-18.39999961853</ele>
        <time>2025-04-21T16:40:09.000Z</time>
      </trkpt>
      <trkpt lat="43.99385" lon="4.92913">
        <ele>-18</ele>
        <time>2025-04-21T16:40:19.000Z</time>
      </trkpt>
      <trkpt lat="43.99382" lon="4.92897">
        <ele>-18.200000762939</ele>
        <time>2025-04-21T16:40:21.000Z</time>
      </trkpt>
      <trkpt lat="43.99365" lon="4.92819">
        <ele>-17.799999237061</ele>
        <time>2025-04-21T16:40:31.000Z</time>
      </trkpt>
      <trkpt lat="43.99363" lon="4.92812">
        <ele>-17.60000038147</ele>
        <time>2025-04-21T16:40:32.000Z</time>
      </trkpt>
      <trkpt lat="43.9935" lon="4.92733">
        <ele>-17.39999961853</ele>
        <time>2025-04-21T16:40:42.000Z</time>
      </trkpt>
      <trkpt lat="43.99349" lon="4.92725">
        <ele>-17.39999961853</ele>
        <time>2025-04-21T16:40:43.000Z</time>
      </trkpt>
      <trkpt lat="43.99344" lon="4.92703">
        <ele>-17.39999961853</ele>
        <time>2025-04-21T16:40:46.000Z</time>
      </trkpt>
      <trkpt lat="43.99339" lon="4.92691">
        <ele>-17.200000762939</ele>
        <time>2025-04-21T16:40:48.000Z</time>
      </trkpt>
      <trkpt lat="43.99331" lon="4.92679">
        <ele>-17</ele>
        <time>2025-04-21T16:40:50.000Z</time>
      </trkpt>
      <trkpt lat="43.99323" lon="4.92668">
        <ele>-17</ele>
        <time>2025-04-21T16:40:52.000Z</time>
      </trkpt>
      <trkpt lat="43.99318" lon="4.92664">
        <ele>-16.799999237061</ele>
        <time>2025-04-21T16:40:53.000Z</time>
      </trkpt>
      <trkpt lat="43.99289" lon="4.9265">
        <ele>-17</ele>
        <time>2025-04-21T16:40:58.000Z</time>
      </trkpt>
      <trkpt lat="43.99248" lon="4.92637">
        <ele>-16.60000038147</ele>
        <time>2025-04-21T16:41:05.000Z</time>
      </trkpt>
      <trkpt lat="43.99242" lon="4.92634">
        <ele>-16.39999961853</ele>
        <time>2025-04-21T16:41:06.000Z</time>
      </trkpt>
      <trkpt lat="43.99219" lon="4.92606">
        <ele>-16.39999961853</ele>
        <time>2025-04-21T16:41:11.000Z</time>
      </trkpt>
      <trkpt lat="43.99213" lon="4.92591">
        <ele>-16.39999961853</ele>
        <time>2025-04-21T16:41:13.000Z</time>
      </trkpt>
      <trkpt lat="43.99202" lon="4.92562">
        <ele>-16.200000762939</ele>
        <time>2025-04-21T16:41:17.000Z</time>
      </trkpt>
      <trkpt lat="43.99199" lon="4.92555">
        <ele>-16</ele>
        <time>2025-04-21T16:41:18.000Z</time>
      </trkpt>
      <trkpt lat="43.99194" lon="4.92544">
        <ele>-16.39999961853</ele>
        <time>2025-04-21T16:41:20.000Z</time>
      </trkpt>
      <trkpt lat="43.99189" lon="4.92542">
        <ele>-16.60000038147</ele>
        <time>2025-04-21T16:41:21.000Z</time>
      </trkpt>
      <trkpt lat="43.99175" lon="4.92544">
        <ele>-16.200000762939</ele>
        <time>2025-04-21T16:41:24.000Z</time>
      </trkpt>
      <trkpt lat="43.99167" lon="4.92537">
        <ele>-16.200000762939</ele>
        <time>2025-04-21T16:41:27.000Z</time>
      </trkpt>
      <trkpt lat="43.99168" lon="4.9252">
        <ele>-16.200000762939</ele>
        <time>2025-04-21T16:41:30.000Z</time>
      </trkpt>
      <trkpt lat="43.9916" lon="4.92517">
        <ele>-16.39999961853</ele>
        <time>2025-04-21T16:41:32.000Z</time>
      </trkpt>
      <trkpt lat="43.99143" lon="4.925">
        <ele>-16.200000762939</ele>
        <time>2025-04-21T16:41:36.000Z</time>
      </trkpt>
      <trkpt lat="43.99136" lon="4.92488">
        <ele>-16.200000762939</ele>
        <time>2025-04-21T16:41:38.000Z</time>
      </trkpt>
      <trkpt lat="43.99133" lon="4.92474">
        <ele>-16.39999961853</ele>
        <time>2025-04-21T16:41:40.000Z</time>
      </trkpt>
      <trkpt lat="43.99124" lon="4.9246">
        <ele>-16.60000038147</ele>
        <time>2025-04-21T16:41:43.000Z</time>
      </trkpt>
      <trkpt lat="43.99109" lon="4.92469">
        <ele>-16.39999961853</ele>
        <time>2025-04-21T16:41:46.000Z</time>
      </trkpt>
      <trkpt lat="43.99104" lon="4.92474">
        <ele>-16.39999961853</ele>
        <time>2025-04-21T16:41:47.000Z</time>
      </trkpt>
      <trkpt lat="43.99073" lon="4.92501">
        <ele>-16.200000762939</ele>
        <time>2025-04-21T16:41:53.000Z</time>
      </trkpt>
      <trkpt lat="43.99023" lon="4.9254">
        <ele>-16.39999961853</ele>
        <time>2025-04-21T16:42:02.000Z</time>
      </trkpt>
      <trkpt lat="43.99012" lon="4.92548">
        <ele>-16.60000038147</ele>
        <time>2025-04-21T16:42:04.000Z</time>
      </trkpt>
      <trkpt lat="43.98963" lon="4.92584">
        <ele>-16.200000762939</ele>
        <time>2025-04-21T16:42:13.000Z</time>
      </trkpt>
      <trkpt lat="43.98954" lon="4.92592">
        <ele>-16.200000762939</ele>
        <time>2025-04-21T16:42:15.000Z</time>
      </trkpt>
      <trkpt lat="43.98923" lon="4.92614">
        <ele>-16</ele>
        <time>2025-04-21T16:42:22.000Z</time>
      </trkpt>
      <trkpt lat="43.9891" lon="4.92621">
        <ele>-16</ele>
        <time>2025-04-21T16:42:25.000Z</time>
      </trkpt>
      <trkpt lat="43.989" lon="4.92618">
        <ele>-15.800000190735</ele>
        <time>2025-04-21T16:42:27.000Z</time>
      </trkpt>
      <trkpt lat="43.98883" lon="4.92623">
        <ele>-16.39999961853</ele>
        <time>2025-04-21T16:42:30.000Z</time>
      </trkpt>
      <trkpt lat="43.98873" lon="4.92631">
        <ele>-16.39999961853</ele>
        <time>2025-04-21T16:42:32.000Z</time>
      </trkpt>
      <trkpt lat="43.98849" lon="4.92648">
        <ele>-16.200000762939</ele>
        <time>2025-04-21T16:42:37.000Z</time>
      </trkpt>
      <trkpt lat="43.98822" lon="4.9267">
        <ele>-16</ele>
        <time>2025-04-21T16:42:44.000Z</time>
      </trkpt>
      <trkpt lat="43.98815" lon="4.92676">
        <ele>-16.200000762939</ele>
        <time>2025-04-21T16:42:46.000Z</time>
      </trkpt>
      <trkpt lat="43.98803" lon="4.92684">
        <ele>-16.200000762939</ele>
        <time>2025-04-21T16:42:49.000Z</time>
      </trkpt>
      <trkpt lat="43.98769" lon="4.9271">
        <ele>-16</ele>
        <time>2025-04-21T16:42:57.000Z</time>
      </trkpt>
      <trkpt lat="43.98732" lon="4.92742">
        <ele>-15.800000190735</ele>
        <time>2025-04-21T16:43:05.000Z</time>
      </trkpt>
      <trkpt lat="43.98683" lon="4.92777">
        <ele>-15.60000038147</ele>
        <time>2025-04-21T16:43:15.000Z</time>
      </trkpt>
      <trkpt lat="43.98661" lon="4.92797">
        <ele>-15.199999809265</ele>
        <time>2025-04-21T16:43:20.000Z</time>
      </trkpt>
      <trkpt lat="43.98657" lon="4.92797">
        <ele>-15.199999809265</ele>
        <time>2025-04-21T16:43:21.000Z</time>
      </trkpt>
      <trkpt lat="43.98644" lon="4.92788">
        <ele>-15.199999809265</ele>
        <time>2025-04-21T16:43:25.000Z</time>
      </trkpt>
      <trkpt lat="43.98631" lon="4.92783">
        <ele>-15.199999809265</ele>
        <time>2025-04-21T16:43:28.000Z</time>
      </trkpt>
      <trkpt lat="43.98621" lon="4.92785">
        <ele>-15</ele>
        <time>2025-04-21T16:43:30.000Z</time>
      </trkpt>
      <trkpt lat="43.98611" lon="4.92787">
        <ele>-14.800000190735</ele>
        <time>2025-04-21T16:43:32.000Z</time>
      </trkpt>
      <trkpt lat="43.98601" lon="4.92788">
        <ele>-14.800000190735</ele>
        <time>2025-04-21T16:43:34.000Z</time>
      </trkpt>
      <trkpt lat="43.98567" lon="4.92792">
        <ele>-15</ele>
        <time>2025-04-21T16:43:41.000Z</time>
      </trkpt>
      <trkpt lat="43.98557" lon="4.92793">
        <ele>-15</ele>
        <time>2025-04-21T16:43:43.000Z</time>
      </trkpt>
      <trkpt lat="43.98542" lon="4.92796">
        <ele>-15.199999809265</ele>
        <time>2025-04-21T16:43:46.000Z</time>
      </trkpt>
      <trkpt lat="43.98537" lon="4.92797">
        <ele>-15.199999809265</ele>
        <time>2025-04-21T16:43:47.000Z</time>
      </trkpt>
      <trkpt lat="43.98502" lon="4.92805">
        <ele>-15</ele>
        <time>2025-04-21T16:43:54.000Z</time>
      </trkpt>
      <trkpt lat="43.98463" lon="4.92821">
        <ele>-14.60000038147</ele>
        <time>2025-04-21T16:44:02.000Z</time>
      </trkpt>
      <trkpt lat="43.98423" lon="4.92836">
        <ele>-14.39999961853</ele>
        <time>2025-04-21T16:44:10.000Z</time>
      </trkpt>
      <trkpt lat="43.98381" lon="4.92849">
        <ele>-14.39999961853</ele>
        <time>2025-04-21T16:44:18.000Z</time>
      </trkpt>
      <trkpt lat="43.98335" lon="4.92868">
        <ele>-14</ele>
        <time>2025-04-21T16:44:27.000Z</time>
      </trkpt>
      <trkpt lat="43.98292" lon="4.92882">
        <ele>-14.199999809265</ele>
        <time>2025-04-21T16:44:35.000Z</time>
      </trkpt>
      <trkpt lat="43.98248" lon="4.92891">
        <ele>-14</ele>
        <time>2025-04-21T16:44:43.000Z</time>
      </trkpt>
      <trkpt lat="43.98242" lon="4.92892">
        <ele>-13.800000190735</ele>
        <time>2025-04-21T16:44:44.000Z</time>
      </trkpt>
      <trkpt lat="43.98203" lon="4.92898">
        <ele>-14.199999809265</ele>
        <time>2025-04-21T16:44:51.000Z</time>
      </trkpt>
      <trkpt lat="43.98146" lon="4.92909">
        <ele>-14</ele>
        <time>2025-04-21T16:45:01.000Z</time>
      </trkpt>
      <trkpt lat="43.9814" lon="4.92911">
        <ele>-14</ele>
        <time>2025-04-21T16:45:02.000Z</time>
      </trkpt>
      <trkpt lat="43.98097" lon="4.92919">
        <ele>-13.800000190735</ele>
        <time>2025-04-21T16:45:09.000Z</time>
      </trkpt>
      <trkpt lat="43.98042" lon="4.92937">
        <ele>-13.800000190735</ele>
        <time>2025-04-21T16:45:18.000Z</time>
      </trkpt>
      <trkpt lat="43.98036" lon="4.92939">
        <ele>-13.800000190735</ele>
        <time>2025-04-21T16:45:19.000Z</time>
      </trkpt>
      <trkpt lat="43.98014" lon="4.92948">
        <ele>-13.800000190735</ele>
        <time>2025-04-21T16:45:23.000Z</time>
      </trkpt>
      <trkpt lat="43.98005" lon="4.92941">
        <ele>-13.800000190735</ele>
        <time>2025-04-21T16:45:25.000Z</time>
      </trkpt>
      <trkpt lat="43.98" lon="4.92917">
        <ele>-13.800000190735</ele>
        <time>2025-04-21T16:45:28.000Z</time>
      </trkpt>
      <trkpt lat="43.97999" lon="4.92908">
        <ele>-13.800000190735</ele>
        <time>2025-04-21T16:45:29.000Z</time>
      </trkpt>
      <trkpt lat="43.97991" lon="4.92838">
        <ele>-14.199999809265</ele>
        <time>2025-04-21T16:45:37.000Z</time>
      </trkpt>
      <trkpt lat="43.97979" lon="4.9276">
        <ele>-14.39999961853</ele>
        <time>2025-04-21T16:45:46.000Z</time>
      </trkpt>
      <trkpt lat="43.97976" lon="4.92743">
        <ele>-14.199999809265</ele>
        <time>2025-04-21T16:45:48.000Z</time>
      </trkpt>
      <trkpt lat="43.97964" lon="4.92665">
        <ele>-14.199999809265</ele>
        <time>2025-04-21T16:45:57.000Z</time>
      </trkpt>
      <trkpt lat="43.9796" lon="4.92639">
        <ele>-14.199999809265</ele>
        <time>2025-04-21T16:46:00.000Z</time>
      </trkpt>
      <trkpt lat="43.97947" lon="4.92561">
        <ele>-14</ele>
        <time>2025-04-21T16:46:09.000Z</time>
      </trkpt>
      <trkpt lat="43.97942" lon="4.92526">
        <ele>-14</ele>
        <time>2025-04-21T16:46:13.000Z</time>
      </trkpt>
      <trkpt lat="43.97931" lon="4.92449">
        <ele>-14.39999961853</ele>
        <time>2025-04-21T16:46:22.000Z</time>
      </trkpt>
      <trkpt lat="43.97928" lon="4.92431">
        <ele>-14.60000038147</ele>
        <time>2025-04-21T16:46:24.000Z</time>
      </trkpt>
      <trkpt lat="43.97917" lon="4.92351">
        <ele>-14.800000190735</ele>
        <time>2025-04-21T16:46:33.000Z</time>
      </trkpt>
      <trkpt lat="43.97914" lon="4.92325">
        <ele>-14.39999961853</ele>
        <time>2025-04-21T16:46:36.000Z</time>
      </trkpt>
      <trkpt lat="43.97905" lon="4.92246">
        <ele>-15</ele>
        <time>2025-04-21T16:46:45.000Z</time>
      </trkpt>
      <trkpt lat="43.97902" lon="4.9222">
        <ele>-14.60000038147</ele>
        <time>2025-04-21T16:46:48.000Z</time>
      </trkpt>
      <trkpt lat="43.97896" lon="4.92168">
        <ele>-14.60000038147</ele>
        <time>2025-04-21T16:46:55.000Z</time>
      </trkpt>
      <trkpt lat="43.97894" lon="4.92144">
        <ele>-15</ele>
        <time>2025-04-21T16:46:58.000Z</time>
      </trkpt>
      <trkpt lat="43.97894" lon="4.92119">
        <ele>-14.800000190735</ele>
        <time>2025-04-21T16:47:01.000Z</time>
      </trkpt>
      <trkpt lat="43.97897" lon="4.92037">
        <ele>-14.800000190735</ele>
        <time>2025-04-21T16:47:11.000Z</time>
      </trkpt>
      <trkpt lat="43.97898" lon="4.9198">
        <ele>-15</ele>
        <time>2025-04-21T16:47:19.000Z</time>
      </trkpt>
      <trkpt lat="43.979" lon="4.91939">
        <ele>-15.39999961853</ele>
        <time>2025-04-21T16:47:26.000Z</time>
      </trkpt>
      <trkpt lat="43.97902" lon="4.919">
        <ele>-15.199999809265</ele>
        <time>2025-04-21T16:47:34.000Z</time>
      </trkpt>
    </trkseg>
  </trk>
</gpx>